Provisional Data: Little Clearfield Creek near Dimeling, PA


Please select a monitoring station.
Please select start date.
Please select start date.

Toggle Unit: C/F Toggle Unit: C/F
Sample Time Temperature (C) Temperature (F) Specific Conductivity (mS/cm) pH   Turbidity (NTU+) DO (mg/L)
10/20/2020 12:00:00 AM 9.86 49.748 0.589 7.87 8.33 10.07
10/20/2020 12:15:00 AM 9.88 49.784 0.589 7.86 8.45 9.98
10/20/2020 12:30:00 AM 9.84 49.712 0.59 7.87 8.69 10.06
10/20/2020 12:45:00 AM 9.84 49.712 0.59 7.87 8.1 10.1
10/20/2020 1:00:00 AM 9.84 49.712 0.59 7.87 8.19 10.09
10/20/2020 1:15:00 AM 9.86 49.748 0.589 7.86 8 10.08
10/20/2020 1:30:00 AM 9.85 49.73 0.589 7.86 8.06 10.08
10/20/2020 1:45:00 AM 9.85 49.73 0.588 7.86 8.24 10.1
10/20/2020 2:00:00 AM 9.85 49.73 0.588 7.86 10.53 10.08
10/20/2020 2:15:00 AM 9.84 49.712 0.589 7.87 8.06 10.13
10/20/2020 2:30:00 AM 9.85 49.73 0.588 7.86 7.85 10.11
10/20/2020 2:45:00 AM 9.86 49.748 0.588 7.86 7.82 10.11
10/20/2020 3:00:00 AM 9.85 49.73 0.589 7.86 7.67 10.08
10/20/2020 3:15:00 AM 9.89 49.802 0.588 7.86 7.5 10.11
10/20/2020 3:30:00 AM 9.86 49.748 0.589 7.86 7.58 10.14
10/20/2020 3:45:00 AM 9.86 49.748 0.589 7.86 7.49 10.09
10/20/2020 4:00:00 AM 9.85 49.73 0.589 7.87 7.42 10.09
10/20/2020 4:15:00 AM 9.87 49.766 0.589 7.86 7.42 10.07
10/20/2020 4:30:00 AM 9.87 49.766 0.589 7.87 7.33 10.11
10/20/2020 4:45:00 AM 9.88 49.784 0.589 7.86 7.34 10.06
10/20/2020 5:00:00 AM 9.9 49.82 0.589 7.86 7.32 10.09
10/20/2020 5:15:00 AM 9.88 49.784 0.589 7.86 7.26 10.12
10/20/2020 5:30:00 AM 9.88 49.784 0.589 7.86 7.26 10.13
10/20/2020 5:45:00 AM 9.89 49.802 0.589 7.87 7.31 10.11
10/20/2020 6:00:00 AM 9.89 49.802 0.589 7.86 7.26 10.1
10/20/2020 6:15:00 AM 9.89 49.802 0.589 7.87 7.14 10.14
10/20/2020 6:30:00 AM 9.89 49.802 0.589 7.87 7.13 10.1
10/20/2020 6:45:00 AM 9.9 49.82 0.589 7.86 7.2 10.11
10/20/2020 7:00:00 AM 9.91 49.838 0.589 7.86 7.19 10.09
10/20/2020 7:15:00 AM 9.93 49.874 0.589 7.86 7.16 10.08
10/20/2020 7:30:00 AM 9.94 49.892 0.589 7.85 7.17 10.06
10/20/2020 7:45:00 AM 9.94 49.892 0.589 7.86 7.31 10.07
10/20/2020 8:00:00 AM 9.95 49.91 0.589 7.85 7.18 10.03
10/20/2020 8:15:00 AM 9.98 49.964 0.589 7.85 7.16 10.04
10/20/2020 8:30:00 AM 10.01 50.018 0.589 7.85 7.19 9.98
10/20/2020 8:45:00 AM 10.01 50.018 0.589 7.85 7.15 10.05
10/20/2020 9:00:00 AM 10.05 50.09 0.589 7.85 7.17 10
10/20/2020 9:15:00 AM 10.08 50.144 0.589 7.84 7.47 9.96
10/20/2020 9:30:00 AM 10.11 50.198 0.59 7.85 7.21 9.98
10/20/2020 9:45:00 AM 10.17 50.306 0.59 7.85 7.44 9.99
10/20/2020 10:00:00 AM 10.2 50.36 0.59 7.85 7.13 10.07
10/20/2020 10:15:00 AM 10.23 50.414 0.59 7.86 7.2 10.08
10/20/2020 10:30:00 AM 10.24 50.432 0.59 7.86 7.06 10.17
10/20/2020 10:45:00 AM 10.37 50.666 0.59 7.84 7.13 10.09
10/20/2020 11:00:00 AM 10.41 50.738 0.59 7.87 7.09 10.2
10/20/2020 11:15:00 AM 10.5 50.9 0.59 7.88 6.99 10.23
10/20/2020 11:30:00 AM 10.59 51.062 0.591 7.87 7.28 10.21
10/20/2020 11:45:00 AM 10.75 51.35 0.591 7.87 6.95 10.19
10/20/2020 12:00:00 PM 10.95 51.71 0.591 7.88 7.02 10.24
10/20/2020 12:15:00 PM 11.16 52.088 0.591 7.88 7 10.18
10/20/2020 12:30:00 PM 11.25 52.25 0.592 7.9 7.06 10.36
10/20/2020 12:45:00 PM 11.3 52.34 0.592 7.92 6.92 10.47
10/20/2020 1:00:00 PM 11.37 52.466 0.592 7.92 6.99 10.47
10/20/2020 1:15:00 PM 11.45 52.61 0.592 7.92 8.84 10.46
10/20/2020 1:30:00 PM 11.49 52.682 0.592 7.93 8.01 10.48
10/20/2020 1:45:00 PM 11.55 52.79 0.592 7.93 8.18 10.41
10/20/2020 2:00:00 PM 11.6 52.88 0.592 7.94 8.18 10.44
10/20/2020 2:15:00 PM 11.63 52.934 0.592 7.94 8.16 10.47
10/20/2020 2:30:00 PM 11.59 52.862 0.593 7.94 8.05 10.44
10/20/2020 2:45:00 PM 11.56 52.808 0.593 7.94 8.13 10.4
10/20/2020 3:00:00 PM 11.56 52.808 0.593 7.94 8.23 10.42
10/20/2020 3:15:00 PM 11.58 52.844 0.593 7.94 8.08 10.35
10/20/2020 3:30:00 PM 11.64 52.952 0.593 7.94 8.12 10.32
10/20/2020 3:45:00 PM 11.71 53.078 0.593 7.93 8.07 10.31
10/20/2020 4:00:00 PM 11.72 53.096 0.593 7.94 8.38 10.23
10/20/2020 4:15:00 PM 11.69 53.042 0.593 7.94 8.2 10.24
10/20/2020 4:30:00 PM 11.68 53.024 0.594 7.94 8.27 10.23
10/20/2020 4:45:00 PM 11.66 52.988 0.594 7.94 8.38 10.19
10/20/2020 5:00:00 PM 11.65 52.97 0.594 7.93 8.32 10.09
10/20/2020 5:15:00 PM 11.59 52.862 0.594 7.94 8.23 10.14
10/20/2020 5:30:00 PM 11.54 52.772 0.595 7.94 8.27 10.11
10/20/2020 5:45:00 PM 11.52 52.736 0.595 7.93 8.25 10.07
10/20/2020 6:00:00 PM 11.5 52.7 0.595 7.92 8.51 9.99
10/20/2020 6:15:00 PM 11.49 52.682 0.595 7.92 8.54 10.01
10/20/2020 6:30:00 PM 11.46 52.628 0.595 7.92 8.19 10.03
10/20/2020 6:45:00 PM 11.44 52.592 0.595 7.92 8.03 9.98
10/20/2020 7:00:00 PM 11.42 52.556 0.595 7.91 8.01 9.97
10/20/2020 7:15:00 PM 11.4 52.52 0.595 7.9 8.05 9.96
10/20/2020 7:30:00 PM 11.38 52.484 0.595 7.9 8.07 9.92
10/20/2020 7:45:00 PM 11.36 52.448 0.595 7.89 8.09 9.91
10/20/2020 8:00:00 PM 11.34 52.412 0.595 7.89 8.07 9.9
10/20/2020 8:15:00 PM 11.33 52.394 0.595 7.88 8.02 9.89
10/20/2020 8:30:00 PM 11.31 52.358 0.595 7.88 8.01 9.85
10/20/2020 8:45:00 PM 11.29 52.322 0.595 7.88 8.01 9.88
10/20/2020 9:00:00 PM 11.27 52.286 0.595 7.88 8.12 9.9
10/20/2020 9:15:00 PM 11.26 52.268 0.595 7.87 8.24 9.85
10/20/2020 9:30:00 PM 11.25 52.25 0.595 7.87 7.98 9.82
10/20/2020 9:45:00 PM 11.26 52.268 0.595 7.86 8.07 9.78
10/20/2020 10:00:00 PM 11.26 52.268 0.595 7.86 8.06 9.8
10/20/2020 10:15:00 PM 11.24 52.232 0.595 7.86 8.09 9.81
10/20/2020 10:30:00 PM 11.25 52.25 0.595 7.86 8.01 9.84
10/20/2020 10:45:00 PM 11.24 52.232 0.595 7.85 8.11 9.83
10/20/2020 11:00:00 PM 11.26 52.268 0.595 7.85 8.55 9.83
10/20/2020 11:15:00 PM 11.24 52.232 0.595 7.85 8.04 9.82
10/20/2020 11:30:00 PM 11.25 52.25 0.595 7.85 8.01 9.81
10/20/2020 11:45:00 PM 11.25 52.25 0.595 7.84 8.02 9.82
10/21/2020 12:00:00 AM 11.26 52.268 0.595 7.84 8.01 9.8
10/21/2020 12:15:00 AM 11.26 52.268 0.595 7.85 8.55 9.8
10/21/2020 12:30:00 AM 11.26 52.268 0.595 7.85 8.49 9.86
10/21/2020 12:45:00 AM 11.27 52.286 0.595 7.84 8.47 9.87
10/21/2020 1:00:00 AM 11.26 52.268 0.595 7.84 8.05 9.85
10/21/2020 1:15:00 AM 11.25 52.25 0.595 7.84 8.95 9.82
10/21/2020 1:30:00 AM 11.25 52.25 0.595 7.83 8.72 9.82
10/21/2020 1:45:00 AM 11.25 52.25 0.595 7.83 8.18 9.82
10/21/2020 2:00:00 AM 11.26 52.268 0.595 7.83 8.1 9.85
10/21/2020 2:15:00 AM 11.27 52.286 0.595 7.83 8.1 9.81
10/21/2020 2:30:00 AM 11.29 52.322 0.595 7.82 8.21 9.78
10/21/2020 2:45:00 AM 11.29 52.322 0.595 7.83 7.83 9.8
10/21/2020 3:00:00 AM 11.3 52.34 0.596 7.82 7.84 9.78
10/21/2020 3:15:00 AM 11.3 52.34 0.596 7.83 7.83 9.76
10/21/2020 3:30:00 AM 11.31 52.358 0.596 7.81 7.86 9.78
10/21/2020 3:45:00 AM 11.31 52.358 0.596 7.83 8.41 9.81
10/21/2020 4:00:00 AM 11.31 52.358 0.596 7.83 7.87 9.82
10/21/2020 4:15:00 AM 11.31 52.358 0.596 7.83 7.73 9.84
10/21/2020 4:30:00 AM 11.32 52.376 0.596 7.83 7.79 9.85
10/21/2020 4:45:00 AM 11.33 52.394 0.596 7.83 7.9 9.83
10/21/2020 5:00:00 AM 11.33 52.394 0.596 7.83 7.88 9.86
10/21/2020 5:15:00 AM 11.34 52.412 0.596 7.83 7.89 9.83
10/21/2020 5:30:00 AM 11.35 52.43 0.596 7.83 7.85 9.85
10/21/2020 5:45:00 AM 11.36 52.448 0.596 7.83 8 9.87
10/21/2020 6:00:00 AM 11.36 52.448 0.596 7.84 8.55 9.84
10/21/2020 6:15:00 AM 11.37 52.466 0.596 7.84 8.07 9.84
10/21/2020 6:30:00 AM 11.37 52.466 0.596 7.84 7.84 9.83
10/21/2020 6:45:00 AM 11.37 52.466 0.596 7.83 7.79 9.8
10/21/2020 7:00:00 AM 11.37 52.466 0.596 7.83 7.86 9.84
10/21/2020 7:15:00 AM 11.37 52.466 0.596 7.84 7.73 9.87
10/21/2020 7:30:00 AM 11.37 52.466 0.596 7.84 7.66 9.84
10/21/2020 7:45:00 AM 11.36 52.448 0.596 7.84 7.57 9.84
10/21/2020 8:00:00 AM 11.36 52.448 0.596 7.84 7.5 9.83
10/21/2020 8:15:00 AM 11.37 52.466 0.596 7.84 7.47 9.85
10/21/2020 8:30:00 AM 11.38 52.484 0.596 7.84 7.47 9.84
10/21/2020 8:45:00 AM 11.4 52.52 0.596 7.84 7.48 9.81
10/21/2020 9:00:00 AM 11.45 52.61 0.596 7.85 7.38 9.87
10/21/2020 9:15:00 AM 11.5 52.7 0.596 7.85 7.4 9.91
10/21/2020 9:30:00 AM 11.56 52.808 0.595 7.85 7.37 9.9
10/21/2020 9:45:00 AM 11.62 52.916 0.595 7.86 7.48 10.01
10/21/2020 10:00:00 AM 11.7 53.06 0.595 7.88 7.44 10.01
10/21/2020 10:15:00 AM 11.8 53.24 0.595 7.89 7.75 10.12
10/21/2020 10:30:00 AM 11.92 53.456 0.595 7.9 7.33 10.18
10/21/2020 10:45:00 AM 11.97 53.546 0.595 7.92 7.37 10.14
10/21/2020 11:00:00 AM 12.03 53.654 0.594 7.92 7.38 10.17
10/21/2020 11:15:00 AM 12.05 53.69 0.594 7.92 7.39 10.2
10/21/2020 11:30:00 AM 12.14 53.852 0.594 7.92 7.45 10.19
10/21/2020 11:45:00 AM 12.31 54.158 0.594 7.93 7.36 10.14
10/21/2020 12:00:00 PM 12.51 54.518 0.593 7.94 7.32 10.16
10/21/2020 12:15:00 PM 12.67 54.806 0.593 7.95 7.38 10.14
10/21/2020 12:30:00 PM 12.84 55.112 0.592 7.95 7.6 10.11
10/21/2020 12:45:00 PM 13.02 55.436 0.592 7.96 7.52 10.01
10/21/2020 1:00:00 PM 13.22 55.796 0.592 7.97 7.29 10.07
10/21/2020 1:15:00 PM 13.69 56.642 0.592 7.97 7.28 9.98
10/21/2020 1:30:00 PM 14.16 57.488 0.591 7.98 7.22 10.02
10/21/2020 1:45:00 PM 14.25 57.65 0.591 7.99 7.33 10.04
10/21/2020 2:00:00 PM 14.48 58.064 0.59 7.99 7.36 10.11
10/21/2020 2:15:00 PM 14.65 58.37 0.59 7.99 7.42 10.09
10/21/2020 2:30:00 PM 14.93 58.874 0.59 8 7.43 10.1
10/21/2020 2:45:00 PM 14.98 58.964 0.59 8.01 7.48 10.11
10/21/2020 3:00:00 PM 15.08 59.144 0.589 8.01 7.43 10.06
10/21/2020 3:15:00 PM 15.23 59.414 0.589 8.01 7.43 10.04
10/21/2020 3:30:00 PM 15.44 59.792 0.589 8.01 7.38 9.97
10/21/2020 3:45:00 PM 15.51 59.918 0.589 8.02 7.61 9.99
10/21/2020 4:00:00 PM 15.72 60.296 0.589 8.02 7.4 9.93
10/21/2020 4:15:00 PM 15.55 59.99 0.589 8.02 7.44 9.88
10/21/2020 4:30:00 PM 15.48 59.864 0.589 8.03 7.44 9.87
10/21/2020 4:45:00 PM 15.42 59.756 0.589 8.03 7.62 9.8
10/21/2020 5:00:00 PM 15.29 59.522 0.588 8.03 7.28 9.74
10/21/2020 5:15:00 PM 15.17 59.306 0.588 8.03 7.38 9.65
10/21/2020 5:30:00 PM 15.07 59.126 0.588 8.03 7.45 9.6
10/21/2020 5:45:00 PM 15.03 59.054 0.588 8.02 7.33 9.56
10/21/2020 6:00:00 PM 14.92 58.856 0.588 8.01 7.47 9.45
10/21/2020 6:15:00 PM 14.89 58.802 0.588 8 7.74 9.34
10/21/2020 6:30:00 PM 14.84 58.712 0.588 8 7.78 9.34
10/21/2020 6:45:00 PM 14.8 58.64 0.588 7.99 7.45 9.26
10/21/2020 7:00:00 PM 14.77 58.586 0.588 7.98 7.68 9.22
10/21/2020 7:15:00 PM 14.72 58.496 0.588 7.98 7.8 9.21
10/21/2020 7:30:00 PM 14.68 58.424 0.588 7.97 7.38 9.12
10/21/2020 7:45:00 PM 14.62 58.316 0.588 7.96 7.61 9.1
10/21/2020 8:00:00 PM 14.56 58.208 0.588 7.95 7.64 9.07
10/21/2020 8:15:00 PM 14.49 58.082 0.588 7.95 7.63 9.09
10/21/2020 8:30:00 PM 14.41 57.938 0.588 7.94 7.77 9.11
10/21/2020 8:45:00 PM 14.33 57.794 0.588 7.94 7.55 9.05
10/21/2020 9:00:00 PM 14.25 57.65 0.588 7.93 7.67 9.06
10/21/2020 9:15:00 PM 14.17 57.506 0.588 7.91 7.78 9.06
10/21/2020 9:30:00 PM 14.11 57.398 0.588 7.92 8.26 9.09
10/21/2020 9:45:00 PM 14.07 57.326 0.588 7.91 7.63 9.07
10/21/2020 10:00:00 PM 14.04 57.272 0.588 7.91 7.64 8.99
10/21/2020 10:15:00 PM 14.02 57.236 0.588 7.9 7.67 9.06
10/21/2020 10:30:00 PM 14 57.2 0.588 7.9 7.53 9.08
10/21/2020 10:45:00 PM 14 57.2 0.588 7.9 7.72 9.07
10/21/2020 11:00:00 PM 13.98 57.164 0.588 7.9 7.62 9.07
10/21/2020 11:15:00 PM 13.97 57.146 0.588 7.89 7.54 9.08
10/21/2020 11:30:00 PM 13.94 57.092 0.588 7.89 7.77 9.06
10/21/2020 11:45:00 PM 13.9 57.02 0.588 7.88 7.75 9.03
10/22/2020 12:00:00 AM 13.88 56.984 0.588 7.88 7.84 9.1
10/22/2020 12:15:00 AM 13.83 56.894 0.588 7.88 7.59 9.11
10/22/2020 12:30:00 AM 13.8 56.84 0.588 7.88 7.68 9.1
10/22/2020 12:45:00 AM 13.75 56.75 0.588 7.88 7.69 9.11
10/22/2020 1:00:00 AM 13.74 56.732 0.588 7.88 7.71 9.13
10/22/2020 1:15:00 AM 13.72 56.696 0.588 7.88 7.51 9.13
10/22/2020 1:30:00 AM 13.7 56.66 0.588 7.88 7.73 9.13
10/22/2020 1:45:00 AM 13.7 56.66 0.588 7.89 7.46 9.17
10/22/2020 2:00:00 AM 13.68 56.624 0.588 7.89 8.26 9.14
10/22/2020 2:15:00 AM 13.66 56.588 0.588 7.89 7.54 9.16
10/22/2020 2:30:00 AM 13.67 56.606 0.588 7.89 7.98 9.14
10/22/2020 2:45:00 AM 13.66 56.588 0.588 7.9 7.57 9.12
10/22/2020 3:00:00 AM 13.64 56.552 0.588 7.9 7.62 9.12
10/22/2020 3:15:00 AM 13.62 56.516 0.588 7.9 7.65 9.19
10/22/2020 3:30:00 AM 13.6 56.48 0.588 7.9 7.78 9.19
10/22/2020 3:45:00 AM 13.59 56.462 0.588 7.9 7.64 9.19
10/22/2020 4:00:00 AM 13.57 56.426 0.588 7.9 7.77 9.21
10/22/2020 4:15:00 AM 13.56 56.408 0.588 7.9 7.8 9.21
10/22/2020 4:30:00 AM 13.56 56.408 0.588 7.9 7.84 9.21
10/22/2020 4:45:00 AM 13.55 56.39 0.588 7.9 7.63 9.21
10/22/2020 5:00:00 AM 13.54 56.372 0.588 7.9 7.67 9.2
10/22/2020 5:15:00 AM 13.49 56.282 0.588 7.9 7.59 9.22
10/22/2020 5:30:00 AM 13.49 56.282 0.588 7.9 7.59 9.23
10/22/2020 5:45:00 AM 13.49 56.282 0.588 7.9 7.66 9.2
10/22/2020 6:00:00 AM 13.49 56.282 0.588 7.9 7.61 9.23
10/22/2020 6:15:00 AM 13.48 56.264 0.588 7.9 7.55 9.25
10/22/2020 6:30:00 AM 13.47 56.246 0.588 7.91 7.85 9.24
10/22/2020 6:45:00 AM 13.47 56.246 0.589 7.9 7.62 9.22
10/22/2020 7:00:00 AM 13.48 56.264 0.589 7.91 7.61 9.27
10/22/2020 7:15:00 AM 13.46 56.228 0.589 7.91 7.48 9.27
10/22/2020 7:30:00 AM 13.45 56.21 0.589 7.9 7.49 9.24
10/22/2020 7:45:00 AM 13.44 56.192 0.589 7.9 7.59 9.2
10/22/2020 8:00:00 AM 13.44 56.192 0.589 7.9 7.47 9.2
10/22/2020 8:15:00 AM 13.42 56.156 0.589 7.9 8.07 9.23
10/22/2020 8:30:00 AM 13.41 56.138 0.589 7.9 7.44 9.23
10/22/2020 8:45:00 AM 13.42 56.156 0.589 7.91 7.56 9.27
10/22/2020 9:00:00 AM 13.42 56.156 0.588 7.9 7.53 9.29
10/22/2020 9:15:00 AM 13.41 56.138 0.588 7.9 7.64 9.26
10/22/2020 9:30:00 AM 13.45 56.21 0.588 7.89 7.58 9.33
10/22/2020 9:45:00 AM 13.53 56.354 0.589 7.89 7.52 9.24
10/22/2020 10:00:00 AM 13.62 56.516 0.588 7.9 7.46 9.37
10/22/2020 10:15:00 AM 13.75 56.75 0.589 7.9 9.41 9.36
10/22/2020 10:30:00 AM 13.82 56.876 0.589 7.92 7.16 9.53
10/22/2020 10:45:00 AM 13.89 57.002 0.589 7.92 7.3 9.57
10/22/2020 11:00:00 AM 13.93 57.074 0.589 7.94 7.61 9.64
10/22/2020 11:15:00 AM 13.97 57.146 0.589 7.93 7.49 9.59
10/22/2020 11:30:00 AM 14 57.2 0.589 7.93 7.26 9.63
10/22/2020 11:45:00 AM 14.31 57.758 0.589 7.94 7.4 9.57
10/22/2020 12:00:00 PM 14.31 57.758 0.589 7.95 7.52 9.62
10/22/2020 12:15:00 PM 14.44 57.992 0.589 7.95 7.36 9.64
10/22/2020 12:30:00 PM 14.55 58.19 0.589 7.95 7.25 9.59
10/22/2020 12:45:00 PM 14.77 58.586 0.59 7.96 7.34 9.58
10/22/2020 1:00:00 PM 15.02 59.036 0.59 7.96 7.28 9.52
10/22/2020 1:15:00 PM 15.14 59.252 0.59 7.97 7.41 9.57
10/22/2020 1:30:00 PM 15.32 59.576 0.59 7.98 7.19 9.6
10/22/2020 1:45:00 PM 16.03 60.854 0.59 7.96 7.14 9.42
10/22/2020 2:00:00 PM 16.03 60.854 0.59 7.99 7.32 9.56
10/22/2020 2:15:00 PM 16.06 60.908 0.59 7.99 7.17 9.65
10/22/2020 2:30:00 PM 16.25 61.25 0.591 7.98 7.21 9.63
10/22/2020 2:45:00 PM 16.45 61.61 0.591 7.99 8.07 9.61
10/22/2020 3:00:00 PM 16.53 61.754 0.591 8.01 7.43 9.7
10/22/2020 3:15:00 PM 16.4 61.52 0.591 8 7.3 9.64
10/22/2020 3:30:00 PM 16.57 61.826 0.591 8.01 7.27 9.61
10/22/2020 3:45:00 PM 16.83 62.294 0.592 8.02 7.22 9.58
10/22/2020 4:00:00 PM 16.57 61.826 0.591 8.02 7.63 9.51
10/22/2020 4:15:00 PM 16.58 61.844 0.592 8.02 7.6 9.53
10/22/2020 4:30:00 PM 16.64 61.952 0.592 8.02 7.33 9.5
10/22/2020 4:45:00 PM 16.56 61.808 0.592 8.01 7.32 9.42
10/22/2020 5:00:00 PM 16.29 61.322 0.592 8.02 7.3 9.39
10/22/2020 5:15:00 PM 16.12 61.016 0.592 8.02 7.44 9.35
10/22/2020 5:30:00 PM 15.95 60.71 0.593 8.02 7.31 9.32
10/22/2020 5:45:00 PM 15.8 60.44 0.593 8.01 7.31 9.27
10/22/2020 6:00:00 PM 15.67 60.206 0.593 8.01 7.38 9.22
10/22/2020 6:15:00 PM 15.56 60.008 0.593 8 7.28 9.16
10/22/2020 6:30:00 PM 15.52 59.936 0.593 7.99 7.42 9.05
10/22/2020 6:45:00 PM 15.4 59.72 0.593 7.99 7.32 9.01
10/22/2020 7:00:00 PM 15.34 59.612 0.594 7.97 7.28 8.99
10/22/2020 7:15:00 PM 15.29 59.522 0.594 7.96 7.55 8.94
10/22/2020 7:30:00 PM 15.26 59.468 0.594 7.96 7.28 8.89
10/22/2020 7:45:00 PM 15.2 59.36 0.594 7.95 7.32 8.85
10/22/2020 8:00:00 PM 15.13 59.234 0.594 7.94 7.44 8.81
10/22/2020 8:15:00 PM 15.05 59.09 0.594 7.93 7.68 8.78
10/22/2020 8:30:00 PM 14.98 58.964 0.594 7.93 7.46 8.76
10/22/2020 8:45:00 PM 14.92 58.856 0.594 7.92 7.37 8.8
10/22/2020 9:00:00 PM 14.86 58.748 0.594 7.92 7.41 8.76
10/22/2020 9:15:00 PM 14.78 58.604 0.594 7.92 7.43 8.75
10/22/2020 9:30:00 PM 14.69 58.442 0.594 7.91 7.3 8.72
10/22/2020 9:45:00 PM 14.61 58.298 0.594 7.91 7.33 8.79
10/22/2020 10:00:00 PM 14.54 58.172 0.595 7.91 7.28 8.77
10/22/2020 10:15:00 PM 14.45 58.01 0.595 7.92 7.22 8.89
10/22/2020 10:30:00 PM 14.37 57.866 0.595 7.91 7.23 8.83
10/22/2020 10:45:00 PM 14.29 57.722 0.595 7.91 7.26 8.75
10/22/2020 11:00:00 PM 14.21 57.578 0.595 7.9 7.36 8.77
10/22/2020 11:15:00 PM 14.13 57.434 0.595 7.91 7.27 8.86
10/22/2020 11:30:00 PM 14.06 57.308 0.595 7.91 7.28 8.88
10/22/2020 11:45:00 PM 14 57.2 0.595 7.91 7.38 8.93
10/23/2020 12:00:00 AM 13.94 57.092 0.595 7.91 7.29 8.88
10/23/2020 12:15:00 AM 13.88 56.984 0.595 7.9 7.28 8.93
10/23/2020 12:30:00 AM 13.83 56.894 0.595 7.91 7.27 9.07
10/23/2020 12:45:00 AM 13.79 56.822 0.595 7.92 7.31 9.05
10/23/2020 1:00:00 AM 13.69 56.642 0.595 7.92 7.29 9.05
10/23/2020 1:15:00 AM 13.66 56.588 0.595 7.92 7.3 9.05
10/23/2020 1:30:00 AM 13.62 56.516 0.596 7.92 7.25 9.06
10/23/2020 1:45:00 AM 13.61 56.498 0.596 7.93 7.25 9.13
10/23/2020 2:00:00 AM 13.52 56.336 0.596 7.92 7.56 9.06
10/23/2020 2:15:00 AM 13.49 56.282 0.596 7.91 7.29 9.08
10/23/2020 2:30:00 AM 13.42 56.156 0.596 7.92 7.3 9.12
10/23/2020 2:45:00 AM 13.39 56.102 0.596 7.92 7.32 9.15
10/23/2020 3:00:00 AM 13.32 55.976 0.596 7.92 7.39 9.1
10/23/2020 3:15:00 AM 13.25 55.85 0.596 7.92 7.32 9.13
10/23/2020 3:30:00 AM 13.23 55.814 0.596 7.92 7.37 9.15
10/23/2020 3:45:00 AM 13.21 55.778 0.596 7.92 7.4 9.16
10/23/2020 4:00:00 AM 13.13 55.634 0.596 7.93 7.35 9.12
10/23/2020 4:15:00 AM 13.11 55.598 0.596 7.93 7.47 9.17
10/23/2020 4:30:00 AM 13.1 55.58 0.596 7.93 7.32 9.17
10/23/2020 4:45:00 AM 13.1 55.58 0.596 7.93 7.43 9.24
10/23/2020 5:00:00 AM 13.09 55.562 0.597 7.93 7.42 9.19
10/23/2020 5:15:00 AM 13.08 55.544 0.596 7.93 7.34 9.23
10/23/2020 5:30:00 AM 13.09 55.562 0.597 7.93 7.31 9.26
10/23/2020 5:45:00 AM 13.09 55.562 0.596 7.93 7.36 9.28
10/23/2020 6:00:00 AM 13.07 55.526 0.596 7.92 7.39 9.28
10/23/2020 6:15:00 AM 13.02 55.436 0.597 7.93 7.4 9.28
10/23/2020 6:30:00 AM 12.98 55.364 0.596 7.92 7.96 9.25
10/23/2020 6:45:00 AM 12.94 55.292 0.596 7.93 7.42 9.33
10/23/2020 7:00:00 AM 12.93 55.274 0.597 7.93 7.72 9.3
10/23/2020 7:15:00 AM 12.89 55.202 0.597 7.92 7.37 9.32
10/23/2020 7:30:00 AM 12.81 55.058 0.597 7.92 7.46 9.24
10/23/2020 7:45:00 AM 12.76 54.968 0.597 7.91 7.45 9.29
10/23/2020 8:00:00 AM 12.72 54.896 0.597 7.92 7.44 9.31
10/23/2020 8:15:00 AM 12.76 54.968 0.597 7.91 7.64 9.36
10/23/2020 8:30:00 AM 12.76 54.968 0.597 7.93 7.44 9.4
10/23/2020 8:45:00 AM 12.78 55.004 0.597 7.93 7.38 9.46
10/23/2020 9:00:00 AM 12.79 55.022 0.597 7.93 7.41 9.43
10/23/2020 9:15:00 AM 12.81 55.058 0.597 7.93 7.55 9.45
10/23/2020 9:30:00 AM 12.85 55.13 0.597 7.91 7.45 9.51
10/23/2020 9:45:00 AM 12.91 55.238 0.597 7.94 7.42 9.57
10/23/2020 10:00:00 AM 13.08 55.544 0.596 7.92 7.41 9.55
10/23/2020 10:15:00 AM 13.27 55.886 0.596 7.93 7.35 9.55
10/23/2020 10:30:00 AM 13.36 56.048 0.596 7.95 7.32 9.68
10/23/2020 10:45:00 AM 13.48 56.264 0.596 7.96 7.24 9.71
10/23/2020 11:00:00 AM 13.49 56.282 0.596 7.96 7.5 9.75
10/23/2020 11:15:00 AM 13.59 56.462 0.597 7.96 7.46 9.7
10/23/2020 11:30:00 AM 13.72 56.696 0.596 7.96 7.33 9.67
10/23/2020 11:45:00 AM 13.95 57.11 0.596 7.94 7.33 9.65
10/23/2020 12:00:00 PM 14.02 57.236 0.596 7.96 7.38 9.63
10/23/2020 12:15:00 PM 14.23 57.614 0.596 7.96 7.35 9.66
10/23/2020 12:30:00 PM 14.63 58.334 0.597 7.99 7.33 9.69
10/23/2020 12:45:00 PM 14.64 58.352 0.596 7.99 7.36 9.67
10/23/2020 1:00:00 PM 14.77 58.586 0.596 8 7.28 9.67
10/23/2020 1:15:00 PM 14.94 58.892 0.596 8 7.29 9.67
10/23/2020 1:30:00 PM 15.24 59.432 0.596 8 7.24 9.62
10/23/2020 1:45:00 PM 15.47 59.846 0.597 8.01 7.21 9.62
10/23/2020 2:00:00 PM 15.78 60.404 0.597 7.99 7.26 9.6
10/23/2020 2:15:00 PM 15.89 60.602 0.596 8 7.26 9.62
10/23/2020 2:30:00 PM 16.01 60.818 0.596 8 7.28 9.64
10/23/2020 2:45:00 PM 16.11 60.998 0.597 8.02 7.19 9.63
10/23/2020 3:00:00 PM 16.31 61.358 0.597 8 7.24 9.63
10/23/2020 3:15:00 PM 16.35 61.43 0.598 8.02 7.42 9.66
10/23/2020 3:30:00 PM 16.22 61.196 0.597 8.02 7.27 9.5
10/23/2020 3:45:00 PM 16.01 60.818 0.598 8.03 7.41 9.55
10/23/2020 4:00:00 PM 16.23 61.214 0.597 8.02 7.4 9.31
10/23/2020 4:15:00 PM 16.36 61.448 0.597 8.02 7.38 9.39
10/23/2020 4:30:00 PM 16.15 61.07 0.597 8.03 7.35 9.3
10/23/2020 4:45:00 PM 16.06 60.908 0.598 8.02 7.21 9.39
10/23/2020 5:00:00 PM 16 60.8 0.598 8.03 7.26 9.34
10/23/2020 5:15:00 PM 15.89 60.602 0.598 8.03 7.29 9.3
10/23/2020 5:30:00 PM 15.92 60.656 0.598 8.02 7.31 9.24
10/23/2020 5:45:00 PM 15.79 60.422 0.598 8.02 7.42 9.18
10/23/2020 6:00:00 PM 15.69 60.242 0.598 8.02 7.36 9.12
10/23/2020 6:15:00 PM 15.63 60.134 0.598 8.01 7.96 9.09
10/23/2020 6:30:00 PM 15.51 59.918 0.598 8 7.25 8.98
10/23/2020 6:45:00 PM 15.46 59.828 0.598 7.99 7.27 8.93
10/23/2020 7:00:00 PM 15.4 59.72 0.598 7.98 7.26 8.93
10/23/2020 7:15:00 PM 15.33 59.594 0.598 7.98 7.53 8.88
10/23/2020 7:30:00 PM 15.27 59.486 0.599 7.96 7.28 8.73
10/23/2020 7:45:00 PM 15.17 59.306 0.598 7.97 7.3 8.82
10/23/2020 8:00:00 PM 15.08 59.144 0.599 7.96 7.36 8.77
10/23/2020 8:15:00 PM 15.02 59.036 0.599 7.95 7.18 8.77
10/23/2020 8:30:00 PM 14.93 58.874 0.598 7.95 7.24 8.71
10/23/2020 8:45:00 PM 14.85 58.73 0.599 7.94 7.23 8.72
10/23/2020 9:00:00 PM 14.79 58.622 0.599 7.93 7.31 8.72
10/23/2020 9:15:00 PM 14.73 58.514 0.599 7.94 7.25 8.73
10/23/2020 9:30:00 PM 14.67 58.406 0.599 7.93 7.22 8.7
10/23/2020 9:45:00 PM 14.6 58.28 0.599 7.93 7.35 8.72
10/23/2020 10:00:00 PM 14.54 58.172 0.599 7.93 7.24 8.76
10/23/2020 10:15:00 PM 14.46 58.028 0.599 7.93 7.19 8.79
10/23/2020 10:30:00 PM 14.39 57.902 0.599 7.93 7.27 8.81
10/23/2020 10:45:00 PM 14.32 57.776 0.599 7.93 7.19 8.79
10/23/2020 11:00:00 PM 14.25 57.65 0.599 7.92 7.28 8.75
10/23/2020 11:15:00 PM 14.2 57.56 0.599 7.92 7.53 8.88
10/23/2020 11:30:00 PM 14.16 57.488 0.599 7.92 7.29 8.84
10/23/2020 11:45:00 PM 14.11 57.398 0.599 7.91 7.3 8.84
10/24/2020 12:00:00 AM 14.06 57.308 0.599 7.92 7.28 8.84
10/24/2020 12:15:00 AM 14.05 57.29 0.599 7.92 7.28 8.89
10/24/2020 12:30:00 AM 14.05 57.29 0.599 7.92 7.26 8.84
10/24/2020 12:45:00 AM 14.03 57.254 0.599 7.92 7.35 8.97
10/24/2020 1:00:00 AM 14.03 57.254 0.599 7.93 7.32 8.99
10/24/2020 1:15:00 AM 14.04 57.272 0.599 7.92 7.61 9.01
10/24/2020 1:30:00 AM 14.02 57.236 0.599 7.92 7.32 8.94
10/24/2020 1:45:00 AM 14.03 57.254 0.599 7.92 7.33 9.02
10/24/2020 2:00:00 AM 14.06 57.308 0.6 7.92 7.32 8.91
10/24/2020 2:15:00 AM 14.08 57.344 0.598 7.93 7.39 8.99
10/24/2020 2:30:00 AM 14.1 57.38 0.598 7.93 7.45 8.95
10/24/2020 2:45:00 AM 14.11 57.398 0.598 7.93 7.52 9.01
10/24/2020 3:00:00 AM 14.13 57.434 0.597 7.93 7.46 8.96
10/24/2020 3:15:00 AM 14.15 57.47 0.598 7.92 7.35 8.99
10/24/2020 3:30:00 AM 14.17 57.506 0.596 7.93 7.44 8.97
10/24/2020 3:45:00 AM 14.2 57.56 0.593 7.92 7.95 9
10/24/2020 4:00:00 AM 14.23 57.614 0.588 7.92 8.29 9.04
10/24/2020 4:15:00 AM 14.25 57.65 0.59 7.91 7.93 9.01
10/24/2020 4:30:00 AM 14.27 57.686 0.59 7.92 7.78 9.01
10/24/2020 4:45:00 AM 14.28 57.704 0.589 7.92 7.7 8.99
10/24/2020 5:00:00 AM 14.29 57.722 0.588 7.91 7.78 8.94
10/24/2020 5:15:00 AM 14.31 57.758 0.588 7.91 7.47 8.9
10/24/2020 5:30:00 AM 14.34 57.812 0.588 7.91 7.54 8.93
10/24/2020 5:45:00 AM 14.37 57.866 0.588 7.9 7.42 8.94
10/24/2020 6:00:00 AM 14.41 57.938 0.588 7.9 7.32 8.93
10/24/2020 6:15:00 AM 14.4 57.92 0.587 7.88 7.39 8.86
10/24/2020 6:30:00 AM 14.41 57.938 0.588 7.89 7.42 8.85
10/24/2020 6:45:00 AM 14.37 57.866 0.588 7.9 7.3 8.81
10/24/2020 7:00:00 AM 14.37 57.866 0.589 7.9 7.82 8.86
10/24/2020 7:15:00 AM 14.33 57.794 0.589 7.9 7.35 8.84
10/24/2020 7:30:00 AM 14.3 57.74 0.589 7.9 7.31 8.82
10/24/2020 7:45:00 AM 14.22 57.596 0.59 7.9 7.28 8.82
10/24/2020 8:00:00 AM 14.19 57.542 0.59 7.9 7.37 8.84
10/24/2020 8:15:00 AM 14.14 57.452 0.591 7.9 7.38 8.83
10/24/2020 8:30:00 AM 14.09 57.362 0.591 7.9 7.3 8.84
10/24/2020 8:45:00 AM 14.08 57.344 0.592 7.91 7.31 8.9
10/24/2020 9:00:00 AM 14.04 57.272 0.593 7.91 7.31 8.93
10/24/2020 9:15:00 AM 14.03 57.254 0.594 7.91 7.26 8.95
10/24/2020 9:30:00 AM 13.99 57.182 0.594 7.92 7.21 9.03
10/24/2020 9:45:00 AM 13.92 57.056 0.594 7.92 7.18 9.01
10/24/2020 10:00:00 AM 13.91 57.038 0.595 7.93 7.21 9.1
10/24/2020 10:15:00 AM 13.85 56.93 0.596 7.95 7.21 9.24
10/24/2020 10:30:00 AM 13.85 56.93 0.596 7.95 7.24 9.22
10/24/2020 10:45:00 AM 13.75 56.75 0.596 7.95 7.23 9.19
10/24/2020 11:00:00 AM 13.75 56.75 0.597 7.96 7.2 9.24
10/24/2020 11:15:00 AM 13.7 56.66 0.597 7.96 7.25 9.28
10/24/2020 11:30:00 AM 13.7 56.66 0.597 7.97 7.18 9.32
10/24/2020 11:45:00 AM 13.68 56.624 0.597 7.99 7.19 9.33
10/24/2020 12:00:00 PM 13.77 56.786 0.597 8 7.77 9.46
10/24/2020 12:15:00 PM 13.69 56.642 0.597 7.99 7.19 9.46
10/24/2020 12:30:00 PM 13.69 56.642 0.597 8.01 7.14 9.5
10/24/2020 12:45:00 PM 13.75 56.75 0.597 8.01 7.17 9.58
10/24/2020 1:00:00 PM 13.77 56.786 0.597 8.01 7.15 9.56
10/24/2020 1:15:00 PM 13.78 56.804 0.597 8.02 7.17 9.62
10/24/2020 1:30:00 PM 13.73 56.714 0.597 8.02 7.21 9.67
10/24/2020 1:45:00 PM 13.77 56.786 0.597 8.03 7.23 9.7
10/24/2020 2:00:00 PM 13.78 56.804 0.597 8.03 7.2 9.74
10/24/2020 2:15:00 PM 13.77 56.786 0.597 8.04 7.31 9.74
10/24/2020 2:30:00 PM 13.75 56.75 0.597 8.03 7.3 9.61
10/24/2020 2:45:00 PM 14.04 57.272 0.597 8.04 7.25 9.77
10/24/2020 3:00:00 PM 14.07 57.326 0.597 8.05 7.28 9.78
10/24/2020 3:15:00 PM 14.02 57.236 0.597 8.02 7.28 9.69
10/24/2020 3:30:00 PM 13.93 57.074 0.596 8.04 8.45 9.74
10/24/2020 3:45:00 PM 14.15 57.47 0.597 8.03 7.3 9.82
10/24/2020 4:00:00 PM 14.09 57.362 0.597 8.04 7.46 9.82
10/24/2020 4:15:00 PM 14.18 57.524 0.597 8.04 7.3 9.78
10/24/2020 4:30:00 PM 14.21 57.578 0.597 8.04 7.5 9.78
10/24/2020 4:45:00 PM 14.18 57.524 0.597 8.04 7.42 9.78
10/24/2020 5:00:00 PM 14.11 57.398 0.597 8.04 7.39 9.76
10/24/2020 5:15:00 PM 13.8 56.84 0.597 8.04 7.43 9.79
10/24/2020 5:30:00 PM 13.55 56.39 0.597 8.04 7.41 9.69
10/24/2020 5:45:00 PM 13.35 56.03 0.597 8.03 7.54 9.68
10/24/2020 6:00:00 PM 13.11 55.598 0.597 8.02 7.69 9.67
10/24/2020 6:15:00 PM 12.78 55.004 0.598 8.03 7.37 9.64
10/24/2020 6:30:00 PM 12.72 54.896 0.598 8.01 7.51 9.56
10/24/2020 6:45:00 PM 12.66 54.788 0.598 8.01 7.47 9.38
10/24/2020 7:00:00 PM 12.49 54.482 0.597 8 7.56 9.4
10/24/2020 7:15:00 PM 12.41 54.338 0.598 8 7.49 9.41
10/24/2020 7:30:00 PM 12.26 54.068 0.598 7.99 7.47 9.31
10/24/2020 7:45:00 PM 12.12 53.816 0.598 7.99 7.55 9.35
10/24/2020 8:00:00 PM 12.05 53.69 0.598 7.98 7.54 9.31
10/24/2020 8:15:00 PM 12.02 53.636 0.599 7.98 7.51 9.36
10/24/2020 8:30:00 PM 11.95 53.51 0.599 7.98 7.49 9.34
10/24/2020 8:45:00 PM 11.84 53.312 0.599 7.97 7.57 9.31
10/24/2020 9:00:00 PM 11.77 53.186 0.599 7.97 7.57 9.37
10/24/2020 9:15:00 PM 11.7 53.06 0.599 7.97 7.45 9.4
10/24/2020 9:30:00 PM 11.62 52.916 0.599 7.97 7.73 9.43
10/24/2020 9:45:00 PM 11.48 52.664 0.599 7.96 7.49 9.42
10/24/2020 10:00:00 PM 11.44 52.592 0.599 7.97 7.45 9.57
10/24/2020 10:15:00 PM 11.26 52.268 0.599 7.97 7.45 9.46
10/24/2020 10:30:00 PM 11.19 52.142 0.599 7.97 7.71 9.56
10/24/2020 10:45:00 PM 11.13 52.034 0.6 7.97 7.42 9.58
10/24/2020 11:00:00 PM 10.94 51.692 0.6 7.97 7.65 9.57
10/24/2020 11:15:00 PM 10.86 51.548 0.6 7.96 7.44 9.57
10/24/2020 11:30:00 PM 10.77 51.386 0.6 7.97 7.42 9.59
10/24/2020 11:45:00 PM 10.67 51.206 0.601 7.96 7.45 9.62
10/25/2020 12:00:00 AM 10.58 51.044 0.601 7.97 7.43 9.61
10/25/2020 12:15:00 AM 10.53 50.954 0.601 7.97 7.57 9.79
10/25/2020 12:30:00 AM 10.49 50.882 0.601 7.98 7.55 9.81
10/25/2020 12:45:00 AM 10.32 50.576 0.602 7.97 7.47 9.83
10/25/2020 1:00:00 AM 10.2 50.36 0.601 7.97 7.51 9.84
10/25/2020 1:15:00 AM 10.15 50.27 0.602 7.97 7.54 9.91
10/25/2020 1:30:00 AM 9.98 49.964 0.602 7.97 7.5 9.85
10/25/2020 1:45:00 AM 9.98 49.964 0.603 7.98 7.62 9.77
10/25/2020 2:00:00 AM 9.93 49.874 0.603 7.97 7.58 9.89
10/25/2020 2:15:00 AM 9.78 49.604 0.603 7.97 7.53 9.92
10/25/2020 2:30:00 AM 9.78 49.604 0.603 7.98 7.62 9.91
10/25/2020 2:45:00 AM 9.68 49.424 0.603 7.97 7.54 9.91
10/25/2020 3:00:00 AM 9.54 49.172 0.603 7.97 7.68 9.96
10/25/2020 3:15:00 AM 9.46 49.028 0.604 7.98 7.5 9.98
10/25/2020 3:30:00 AM 9.46 49.028 0.604 7.98 7.57 10.01
10/25/2020 3:45:00 AM 9.36 48.848 0.604 7.98 7.57 9.98
10/25/2020 4:00:00 AM 9.27 48.686 0.604 7.97 7.54 9.98
10/25/2020 4:15:00 AM 9.28 48.704 0.604 7.98 7.59 10.07
10/25/2020 4:30:00 AM 9.2 48.56 0.604 7.98 7.99 10.12
10/25/2020 4:45:00 AM 9.12 48.416 0.605 7.98 7.63 10.12
10/25/2020 5:00:00 AM 9 48.2 0.605 7.98 7.8 10.21
10/25/2020 5:15:00 AM 9.01 48.218 0.605 7.98 7.7 10.24
10/25/2020 5:30:00 AM 8.93 48.074 0.605 7.98 7.75 10.24
10/25/2020 5:45:00 AM 8.93 48.074 0.605 7.98 7.76 10.26
10/25/2020 6:00:00 AM 8.82 47.876 0.605 7.99 7.74 10.3
10/25/2020 6:15:00 AM 8.72 47.696 0.606 7.98 7.72 10.28
10/25/2020 6:30:00 AM 8.69 47.642 0.605 7.98 7.73 10.3
10/25/2020 6:45:00 AM 8.7 47.66 0.606 7.98 7.82 10.28
10/25/2020 7:00:00 AM 8.66 47.588 0.605 7.98 7.82 10.34
10/25/2020 7:15:00 AM 8.61 47.498 0.606 7.98 7.82 10.32
10/25/2020 7:30:00 AM 8.63 47.534 0.605 7.98 7.87 10.4
10/25/2020 7:45:00 AM 8.55 47.39 0.606 7.98 7.76 10.39
10/25/2020 8:00:00 AM 8.63 47.534 0.606 7.99 7.78 10.46
10/25/2020 8:15:00 AM 8.48 47.264 0.606 7.99 7.87 10.5
10/25/2020 8:30:00 AM 8.55 47.39 0.606 7.98 7.86 10.48
10/25/2020 8:45:00 AM 8.55 47.39 0.605 7.99 7.81 10.47
10/25/2020 9:00:00 AM 8.53 47.354 0.605 7.99 7.77 10.52
10/25/2020 9:15:00 AM 8.55 47.39 0.605 7.99 7.8 10.5
10/25/2020 9:30:00 AM 8.58 47.444 0.605 7.99 7.8 10.53
10/25/2020 9:45:00 AM 8.59 47.462 0.605 7.99 7.83 10.63
10/25/2020 10:00:00 AM 8.65 47.57 0.605 8 7.87 10.7
10/25/2020 10:15:00 AM 8.81 47.858 0.605 8 7.8 10.71
10/25/2020 10:30:00 AM 8.96 48.128 0.604 8 7.85 10.78
10/25/2020 10:45:00 AM 9.12 48.416 0.604 8 7.85 10.82
10/25/2020 11:00:00 AM 9.17 48.506 0.604 8.01 7.81 10.87
10/25/2020 11:15:00 AM 9.25 48.65 0.603 8.02 7.83 10.98
10/25/2020 11:30:00 AM 9.06 48.308 0.603 8.02 7.88 10.93
10/25/2020 11:45:00 AM 9.21 48.578 0.604 8.03 7.91 10.98
10/25/2020 12:00:00 PM 9.26 48.668 0.603 8.02 7.86 10.94
10/25/2020 12:15:00 PM 9.4 48.92 0.603 8.04 7.86 10.97
10/25/2020 12:30:00 PM 9.52 49.136 0.603 8.04 7.84 11
10/25/2020 12:45:00 PM 9.71 49.478 0.603 8.05 7.83 10.94
10/25/2020 1:00:00 PM 9.86 49.748 0.603 8.06 7.81 11.01
10/25/2020 1:15:00 PM 9.98 49.964 0.603 8.06 7.84 10.96
10/25/2020 1:30:00 PM 10.19 50.342 0.602 8.07 7.81 10.97
10/25/2020 1:45:00 PM 10.43 50.774 0.602 8.06 7.83 10.9
10/25/2020 2:00:00 PM 10.53 50.954 0.602 8.07 7.87 10.96
10/25/2020 2:15:00 PM 10.67 51.206 0.601 8.06 7.9 10.99
10/25/2020 2:30:00 PM 10.84 51.512 0.602 8.07 7.96 10.93
10/25/2020 2:45:00 PM 11.2 52.16 0.602 8.07 7.79 10.97
10/25/2020 3:00:00 PM 11.52 52.736 0.601 8.07 7.79 10.89
10/25/2020 3:15:00 PM 11.59 52.862 0.601 8.07 7.94 10.97
10/25/2020 3:30:00 PM 11.47 52.646 0.601 8.07 8.02 10.97
10/25/2020 3:45:00 PM 11.39 52.502 0.601 8.09 8.02 10.87
10/25/2020 4:00:00 PM 11.27 52.286 0.601 8.08 7.92 10.86
10/25/2020 4:15:00 PM 11.18 52.124 0.601 8.09 7.94 10.85
10/25/2020 4:30:00 PM 10.98 51.764 0.601 8.08 7.96 10.76
10/25/2020 4:45:00 PM 10.92 51.656 0.601 8.08 8 10.7
10/25/2020 5:00:00 PM 10.88 51.584 0.602 8.07 8.4 10.59
10/25/2020 5:15:00 PM 10.77 51.386 0.601 8.07 7.92 10.64
10/25/2020 5:30:00 PM 10.65 51.17 0.602 8.07 8 10.58
10/25/2020 5:45:00 PM 10.58 51.044 0.602 8.04 8.01 10.48
10/25/2020 6:00:00 PM 10.46 50.828 0.602 8.05 8.01 10.46
10/25/2020 6:15:00 PM 10.37 50.666 0.602 8.05 8.02 10.47
10/25/2020 6:30:00 PM 10.28 50.504 0.602 8.05 8.01 10.43
10/25/2020 6:45:00 PM 10.19 50.342 0.602 8.04 7.99 10.35
10/25/2020 7:00:00 PM 10.13 50.234 0.602 8.04 7.91 10.36
10/25/2020 7:15:00 PM 10.05 50.09 0.602 8.03 8 10.38
10/25/2020 7:30:00 PM 10 50 0.602 8.03 7.95 10.3
10/25/2020 7:45:00 PM 9.96 49.928 0.602 8.02 7.89 10.3
10/25/2020 8:00:00 PM 9.88 49.784 0.602 8.02 7.9 10.32
10/25/2020 8:15:00 PM 9.85 49.73 0.602 8.01 7.99 10.26
10/25/2020 8:30:00 PM 9.73 49.514 0.602 8.01 8.06 10.28
10/25/2020 8:45:00 PM 9.7 49.46 0.601 8.01 8.04 10.29
10/25/2020 9:00:00 PM 9.63 49.334 0.6 8.01 8.07 10.33
10/25/2020 9:15:00 PM 9.57 49.226 0.598 8.01 8.23 10.35
10/25/2020 9:30:00 PM 9.55 49.19 0.598 8 8.08 10.38
10/25/2020 9:45:00 PM 9.51 49.118 0.598 8.01 7.99 10.38
10/25/2020 10:00:00 PM 9.48 49.064 0.595 8.01 8.15 10.42
10/25/2020 10:15:00 PM 9.44 48.992 0.596 8 8.05 10.44
10/25/2020 10:30:00 PM 9.4 48.92 0.595 8.01 8 10.46
10/25/2020 10:45:00 PM 9.37 48.866 0.595 8 8.06 10.38
10/25/2020 11:00:00 PM 9.33 48.794 0.595 7.99 8.07 10.43
10/25/2020 11:15:00 PM 9.33 48.794 0.595 7.99 8.13 10.39
10/25/2020 11:30:00 PM 9.3 48.74 0.595 7.98 8.06 10.36
10/25/2020 11:45:00 PM 9.31 48.758 0.595 7.98 8.06 10.37
10/26/2020 12:00:00 AM 9.28 48.704 0.595 7.99 7.91 10.42
10/26/2020 12:15:00 AM 9.26 48.668 0.596 7.99 8.08 10.39
10/26/2020 12:30:00 AM 9.25 48.65 0.596 7.99 7.94 10.38
10/26/2020 12:45:00 AM 9.25 48.65 0.596 7.99 8.69 10.4
10/26/2020 1:00:00 AM 9.24 48.632 0.596 7.99 7.89 10.39
10/26/2020 1:15:00 AM 9.21 48.578 0.596 7.98 7.96 10.33
10/26/2020 1:30:00 AM 9.23 48.614 0.597 7.99 7.9 10.39
10/26/2020 1:45:00 AM 9.22 48.596 0.597 7.99 7.97 10.42
10/26/2020 2:00:00 AM 9.22 48.596 0.597 7.98 8.1 10.38
10/26/2020 2:15:00 AM 9.24 48.632 0.598 7.98 8.08 10.36
10/26/2020 2:30:00 AM 9.23 48.614 0.598 7.99 7.91 10.39
10/26/2020 2:45:00 AM 9.23 48.614 0.599 7.99 7.98 10.41
10/26/2020 3:00:00 AM 9.22 48.596 0.599 7.99 8.06 10.41
10/26/2020 3:15:00 AM 9.26 48.668 0.599 7.99 7.88 10.38
10/26/2020 3:30:00 AM 9.25 48.65 0.599 7.98 8.39 10.39
10/26/2020 3:45:00 AM 9.27 48.686 0.6 7.99 7.9 10.45
10/26/2020 4:00:00 AM 9.29 48.722 0.6 8 8.12 10.43
10/26/2020 4:15:00 AM 9.32 48.776 0.6 8.01 7.88 10.51
10/26/2020 4:30:00 AM 9.31 48.758 0.6 8 7.91 10.43
10/26/2020 4:45:00 AM 9.32 48.776 0.6 7.99 7.87 10.41
10/26/2020 5:00:00 AM 9.34 48.812 0.6 8 7.91 10.44
10/26/2020 5:15:00 AM 9.34 48.812 0.6 8 7.93 10.44
10/26/2020 5:30:00 AM 9.34 48.812 0.599 8 8.09 10.44
10/26/2020 5:45:00 AM 9.34 48.812 0.599 8 8.03 10.47
10/26/2020 6:00:00 AM 9.33 48.794 0.599 8 7.97 10.43
10/26/2020 6:15:00 AM 9.34 48.812 0.599 7.99 8.07 10.38
10/26/2020 6:30:00 AM 9.36 48.848 0.599 8 8.09 10.42
10/26/2020 6:45:00 AM 9.37 48.866 0.599 8 8.08 10.44
10/26/2020 7:00:00 AM 9.38 48.884 0.599 7.99 8.12 10.41
10/26/2020 7:15:00 AM 9.37 48.866 0.598 7.99 7.97 10.4
10/26/2020 7:30:00 AM 9.39 48.902 0.598 8 8.07 10.38
10/26/2020 7:45:00 AM 9.4 48.92 0.598 7.99 8.05 10.39
10/26/2020 8:00:00 AM 9.4 48.92 0.597 7.99 8.02 10.37
10/26/2020 8:15:00 AM 9.4 48.92 0.597 8 7.98 10.43
10/26/2020 8:30:00 AM 9.41 48.938 0.596 7.99 8.08 10.42
10/26/2020 8:45:00 AM 9.41 48.938 0.596 8 8.03 10.41
10/26/2020 9:00:00 AM 9.42 48.956 0.596 8 8.1 10.44
10/26/2020 9:15:00 AM 9.45 49.01 0.595 8 9.27 10.46
10/26/2020 9:30:00 AM 9.48 49.064 0.595 8 8.51 10.44
10/26/2020 9:45:00 AM 9.51 49.118 0.595 8 8.55 10.42
10/26/2020 10:00:00 AM 9.54 49.172 0.595 7.99 8.48 10.43
10/26/2020 10:15:00 AM 9.59 49.262 0.595 8 10.67 10.52
10/26/2020 10:30:00 AM 9.66 49.388 0.594 8.01 8.46 10.56
10/26/2020 10:45:00 AM 9.71 49.478 0.594 8.01 8.42 10.54
10/26/2020 11:00:00 AM 9.77 49.586 0.594 8.01 8.46 10.55
10/26/2020 11:15:00 AM 9.87 49.766 0.594 8.01 8.41 10.62
10/26/2020 11:30:00 AM 9.98 49.964 0.593 8.02 8.43 10.64
10/26/2020 11:45:00 AM 10.08 50.144 0.593 8.04 8.37 10.69
10/26/2020 12:00:00 PM 10.15 50.27 0.593 8.03 8.44 10.67
10/26/2020 12:15:00 PM 10.25 50.45 0.593 8.04 8.41 10.69
10/26/2020 12:30:00 PM 10.34 50.612 0.593 8.03 8.47 10.68
10/26/2020 12:45:00 PM 10.44 50.792 0.593 8.04 9.66 10.69
10/26/2020 1:00:00 PM 10.57 51.026 0.593 8.06 8.46 10.76
10/26/2020 1:15:00 PM 10.65 51.17 0.593 8.04 8.48 10.68
10/26/2020 1:30:00 PM 10.76 51.368 0.593 8.04 8.38 10.66
10/26/2020 1:45:00 PM 10.85 51.53 0.593 8.06 8.42 10.68
10/26/2020 2:00:00 PM 10.94 51.692 0.593 8.06 8.41 10.65
10/26/2020 2:15:00 PM 11 51.8 0.593 8.05 10.47 10.68
10/26/2020 2:30:00 PM 11.01 51.818 0.593 8.05 8.69 10.68
10/26/2020 2:45:00 PM 11.03 51.854 0.593 8.06 8.69 10.75
10/26/2020 3:00:00 PM 11.08 51.944 0.593 8.05 8.95 10.69
10/26/2020 3:15:00 PM 11.14 52.052 0.592 8.04 8.57 10.67
10/26/2020 3:30:00 PM 11.19 52.142 0.592 8.05 8.54 10.57
10/26/2020 3:45:00 PM 11.21 52.178 0.592 8.05 8.62 10.61
10/26/2020 4:00:00 PM 11.25 52.25 0.592 8.06 8.54 10.66
10/26/2020 4:15:00 PM 11.23 52.214 0.592 8.05 8.72 10.64
10/26/2020 4:30:00 PM 11.18 52.124 0.592 8.05 8.69 10.57
10/26/2020 4:45:00 PM 11.13 52.034 0.592 8.05 8.68 10.53
10/26/2020 5:00:00 PM 11.06 51.908 0.593 8.06 8.83 10.49
10/26/2020 5:15:00 PM 11.02 51.836 0.593 8.05 8.62 10.39
10/26/2020 5:30:00 PM 10.97 51.746 0.593 8.05 8.57 10.39
10/26/2020 5:45:00 PM 10.95 51.71 0.593 8.04 8.6 10.35
10/26/2020 6:00:00 PM 10.88 51.584 0.593 8.04 8.64 10.35
10/26/2020 6:15:00 PM 10.88 51.584 0.593 8.03 8.62 10.22
10/26/2020 6:30:00 PM 10.83 51.494 0.593 8.02 8.71 10.27
10/26/2020 6:45:00 PM 10.81 51.458 0.593 8.01 8.58 10.23
10/26/2020 7:00:00 PM 10.76 51.368 0.594 8.01 8.7 10.26
10/26/2020 7:15:00 PM 10.74 51.332 0.594 8 8.66 10.21
10/26/2020 7:30:00 PM 10.68 51.224 0.594 8 8.98 10.23
10/26/2020 7:45:00 PM 10.68 51.224 0.594 7.99 8.68 10.19
10/26/2020 8:00:00 PM 10.64 51.152 0.595 7.99 8.57 10.22
10/26/2020 8:15:00 PM 10.63 51.134 0.594 7.98 8.62 10.19
10/26/2020 8:30:00 PM 10.6 51.08 0.595 7.99 8.74 10.2
10/26/2020 8:45:00 PM 10.59 51.062 0.595 7.98 8.69 10.2
10/26/2020 9:00:00 PM 10.57 51.026 0.595 7.98 8.54 10.2
10/26/2020 9:15:00 PM 10.54 50.972 0.595 7.98 8.51 10.23
10/26/2020 9:30:00 PM 10.55 50.99 0.595 7.97 8.54 10.19
10/26/2020 9:45:00 PM 10.53 50.954 0.595 7.97 8.47 10.18
10/26/2020 10:00:00 PM 10.54 50.972 0.595 7.97 8.52 10.2
10/26/2020 10:15:00 PM 10.51 50.918 0.596 7.97 8.52 10.17
10/26/2020 10:30:00 PM 10.53 50.954 0.596 7.97 8.51 10.15
10/26/2020 10:45:00 PM 10.51 50.918 0.596 7.96 8.47 10.14
10/26/2020 11:00:00 PM 10.49 50.882 0.596 7.96 8.49 10.16
10/26/2020 11:15:00 PM 10.48 50.864 0.596 7.97 8.53 10.17
10/26/2020 11:30:00 PM 10.47 50.846 0.596 7.97 8.51 10.16
10/26/2020 11:45:00 PM 10.46 50.828 0.596 7.97 8.58 10.13
10/27/2020 12:00:00 AM 10.44 50.792 0.596 7.97 8.62 10.12
10/27/2020 12:15:00 AM 10.42 50.756 0.596 7.97 8.6 10.16
10/27/2020 12:30:00 AM 10.4 50.72 0.596 7.98 8.61 10.15
10/27/2020 12:45:00 AM 10.39 50.702 0.595 7.97 8.6 10.14
10/27/2020 1:00:00 AM 10.38 50.684 0.596 7.97 8.55 10.13
10/27/2020 1:15:00 AM 10.36 50.648 0.596 7.98 8.69 10.18
10/27/2020 1:30:00 AM 10.34 50.612 0.596 7.98 8.81 10.19
10/27/2020 1:45:00 AM 10.34 50.612 0.595 7.97 8.55 10.15
10/27/2020 2:00:00 AM 10.3 50.54 0.595 7.97 8.57 10.15
10/27/2020 2:15:00 AM 10.24 50.432 0.595 7.98 8.54 10.16
10/27/2020 2:30:00 AM 10.22 50.396 0.595 7.97 8.51 10.11
10/27/2020 2:45:00 AM 10.18 50.324 0.595 7.97 8.57 10.15
10/27/2020 3:00:00 AM 10.19 50.342 0.595 7.97 8.6 10.11
10/27/2020 3:15:00 AM 10.18 50.324 0.595 7.97 8.62 10.07
10/27/2020 3:30:00 AM 10.14 50.252 0.595 7.96 8.67 10.08
10/27/2020 3:45:00 AM 10.15 50.27 0.595 7.97 8.53 10.09
10/27/2020 4:00:00 AM 10.13 50.234 0.596 7.98 8.47 10.18
10/27/2020 4:15:00 AM 10.1 50.18 0.596 7.98 8.52 10.19
10/27/2020 4:30:00 AM 10.09 50.162 0.596 7.98 8.68 10.2
10/27/2020 4:45:00 AM 10.08 50.144 0.596 7.98 8.78 10.22
10/27/2020 5:00:00 AM 10.06 50.108 0.596 7.99 8.72 10.22
10/27/2020 5:15:00 AM 10.04 50.072 0.596 7.98 8.62 10.23
10/27/2020 5:30:00 AM 10.03 50.054 0.596 7.98 8.64 10.22
10/27/2020 5:45:00 AM 10.02 50.036 0.596 7.98 8.68 10.24
10/27/2020 6:00:00 AM 9.99 49.982 0.596 7.98 8.6 10.22
10/27/2020 6:15:00 AM 9.99 49.982 0.596 7.98 8.53 10.21
10/27/2020 6:30:00 AM 9.98 49.964 0.597 7.99 8.9 10.28
10/27/2020 6:45:00 AM 9.94 49.892 0.596 7.99 8.5 10.3
10/27/2020 7:00:00 AM 9.93 49.874 0.596 7.99 8.63 10.28
10/27/2020 7:15:00 AM 9.93 49.874 0.597 7.99 8.64 10.27
10/27/2020 7:30:00 AM 9.91 49.838 0.597 7.99 8.5 10.24
10/27/2020 7:45:00 AM 9.9 49.82 0.597 7.99 8.5 10.27
10/27/2020 8:00:00 AM 9.89 49.802 0.597 7.99 8.57 10.29
10/27/2020 8:15:00 AM 9.89 49.802 0.597 7.99 8.57 10.28
10/27/2020 8:30:00 AM 9.89 49.802 0.597 7.98 8.82 10.25
10/27/2020 8:45:00 AM 9.88 49.784 0.597 7.97 8.71 10.26
10/27/2020 9:00:00 AM 9.89 49.802 0.597 7.98 8.59 10.28
10/27/2020 9:15:00 AM 9.91 49.838 0.597 7.99 8.48 10.32
10/27/2020 9:30:00 AM 9.95 49.91 0.598 7.99 8.54 10.41
10/27/2020 9:45:00 AM 9.98 49.964 0.598 7.99 8.46 10.36
10/27/2020 10:00:00 AM 10.04 50.072 0.598 8 8.41 10.47
10/27/2020 10:15:00 AM 10.08 50.144 0.598 8.01 8.56 10.49
10/27/2020 10:30:00 AM 10.15 50.27 0.598 8.02 8.82 10.48
10/27/2020 10:45:00 AM 10.19 50.342 0.598 8.02 8.46 10.47
10/27/2020 11:00:00 AM 10.22 50.396 0.598 8.03 8.41 10.57
10/27/2020 11:15:00 AM 10.32 50.576 0.598 8.02 8.51 10.59
10/27/2020 11:30:00 AM 10.41 50.738 0.598 8.03 8.48 10.56
10/27/2020 11:45:00 AM 10.55 50.99 0.598 8.02 8.7 10.57
10/27/2020 12:00:00 PM 10.64 51.152 0.599 8.04 8.73 10.65
10/27/2020 12:15:00 PM 10.67 51.206 0.599 8.04 8.43 10.61
10/27/2020 12:30:00 PM 10.74 51.332 0.598 8.05 8.45 10.68
10/27/2020 12:45:00 PM 10.79 51.422 0.598 8.05 8.45 10.7
10/27/2020 1:00:00 PM 10.84 51.512 0.599 8.05 8.46 10.67
10/27/2020 1:15:00 PM 10.89 51.602 0.599 8.07 8.46 10.68
10/27/2020 1:30:00 PM 10.96 51.728 0.598 8.06 8.48 10.73
10/27/2020 1:45:00 PM 10.98 51.764 0.599 8.07 8.42 10.68
10/27/2020 2:00:00 PM 10.99 51.782 0.599 8.08 8.44 10.73
10/27/2020 2:15:00 PM 11.05 51.89 0.599 8.08 8.39 10.69
10/27/2020 2:30:00 PM 11.07 51.926 0.599 8.08 8.41 10.69
10/27/2020 2:45:00 PM 11.05 51.89 0.599 8.08 8.55 10.67
10/27/2020 3:00:00 PM 11.03 51.854 0.599 8.07 8.44 10.62
10/27/2020 3:15:00 PM 11.03 51.854 0.599 8.08 8.48 10.66
10/27/2020 3:30:00 PM 11.01 51.818 0.599 8.08 8.47 10.66
10/27/2020 3:45:00 PM 10.99 51.782 0.599 8.08 8.46 10.64
10/27/2020 4:00:00 PM 10.98 51.764 0.599 8.08 8.51 10.6
10/27/2020 4:15:00 PM 10.96 51.728 0.599 8.07 8.65 10.58
10/27/2020 4:30:00 PM 10.95 51.71 0.599 8.08 8.77 10.57
10/27/2020 4:45:00 PM 10.94 51.692 0.599 8.07 8.49 10.52
10/27/2020 5:00:00 PM 10.92 51.656 0.599 8.07 8.48 10.57
10/27/2020 5:15:00 PM 10.88 51.584 0.599 8.07 8.53 10.5
10/27/2020 5:30:00 PM 10.86 51.548 0.6 8.07 8.5 10.49
10/27/2020 5:45:00 PM 10.81 51.458 0.599 8.06 8.64 10.4
10/27/2020 6:00:00 PM 10.78 51.404 0.599 8.05 8.53 10.4
10/27/2020 6:15:00 PM 10.74 51.332 0.599 8.05 8.48 10.36
10/27/2020 6:30:00 PM 10.7 51.26 0.599 8.05 8.57 10.35
10/27/2020 6:45:00 PM 10.67 51.206 0.599 8.04 8.43 10.29
10/27/2020 7:00:00 PM 10.64 51.152 0.599 8.04 8.45 10.3
10/27/2020 7:15:00 PM 10.6 51.08 0.599 8.03 8.43 10.24
10/27/2020 7:30:00 PM 10.57 51.026 0.6 8.03 8.62 10.23
10/27/2020 7:45:00 PM 10.53 50.954 0.599 8.02 8.52 10.19
10/27/2020 8:00:00 PM 10.49 50.882 0.599 8.02 8.52 10.19
10/27/2020 8:15:00 PM 10.47 50.846 0.6 8.02 8.82 10.19
10/27/2020 8:30:00 PM 10.43 50.774 0.599 8.01 8.8 10.13
10/27/2020 8:45:00 PM 10.4 50.72 0.599 8.01 8.53 10.19
10/27/2020 9:00:00 PM 10.38 50.684 0.599 8.01 8.5 10.19
10/27/2020 9:15:00 PM 10.35 50.63 0.599 8.01 8.5 10.17
10/27/2020 9:30:00 PM 10.32 50.576 0.599 8 8.41 10.15
10/27/2020 9:45:00 PM 10.31 50.558 0.599 8.01 8.4 10.19
10/27/2020 10:00:00 PM 10.29 50.522 0.599 8 8.45 10.16
10/27/2020 10:15:00 PM 10.27 50.486 0.599 8 8.52 10.2
10/27/2020 10:30:00 PM 10.24 50.432 0.599 8.01 8.29 10.22
10/27/2020 10:45:00 PM 10.21 50.378 0.599 8 8.33 10.23
10/27/2020 11:00:00 PM 10.19 50.342 0.599 8.01 8.48 10.25
10/27/2020 11:15:00 PM 10.17 50.306 0.599 8.01 8.65 10.25
10/27/2020 11:30:00 PM 10.14 50.252 0.599 8 8.47 10.24
10/27/2020 11:45:00 PM 10.13 50.234 0.598 8.01 8.44 10.25
10/28/2020 12:00:00 AM 10.12 50.216 0.599 8.01 8.4 10.27
10/28/2020 12:15:00 AM 10.11 50.198 0.598 8 8.43 10.23
10/28/2020 12:30:00 AM 10.1 50.18 0.598 8.01 8.5 10.27
10/28/2020 12:45:00 AM 10.1 50.18 0.599 8 8.3 10.24
10/28/2020 1:00:00 AM 10.07 50.126 0.598 8.01 8.41 10.21
10/28/2020 1:15:00 AM 10.07 50.126 0.597 8 8.36 10.24
10/28/2020 1:30:00 AM 10.08 50.144 0.597 8.01 8.79 10.26
10/28/2020 1:45:00 AM 10.05 50.09 0.597 8 8.39 10.24
10/28/2020 2:00:00 AM 10.06 50.108 0.597 8 8.39 10.25
10/28/2020 2:15:00 AM 10.06 50.108 0.597 7.99 8.33 10.21
10/28/2020 2:30:00 AM 10.07 50.126 0.596 8 8.37 10.25
10/28/2020 2:45:00 AM 10.08 50.144 0.596 7.99 8.42 10.23
10/28/2020 3:00:00 AM 10.08 50.144 0.596 8 8.28 10.26
10/28/2020 3:15:00 AM 10.08 50.144 0.596 8 8.43 10.26
10/28/2020 3:30:00 AM 10.07 50.126 0.595 8 8.38 10.24
10/28/2020 3:45:00 AM 10.09 50.162 0.595 8 8.37 10.24
10/28/2020 4:00:00 AM 10.09 50.162 0.595 8 8.5 10.23
10/28/2020 4:15:00 AM 10.09 50.162 0.594 7.99 8.34 10.22
10/28/2020 4:30:00 AM 10.09 50.162 0.594 8 8.42 10.23
10/28/2020 4:45:00 AM 10.1 50.18 0.594 7.99 8.51 10.22
10/28/2020 5:00:00 AM 10.1 50.18 0.594 7.99 8.6 10.17
10/28/2020 5:15:00 AM 10.11 50.198 0.594 7.99 8.42 10.22
10/28/2020 5:30:00 AM 10.12 50.216 0.593 7.99 8.43 10.22
10/28/2020 5:45:00 AM 10.11 50.198 0.592 7.99 8.49 10.21
10/28/2020 6:00:00 AM 10.12 50.216 0.591 7.99 8.63 10.21
10/28/2020 6:15:00 AM 10.13 50.234 0.591 7.99 8.5 10.19
10/28/2020 6:30:00 AM 10.12 50.216 0.59 7.99 8.47 10.17
10/28/2020 6:45:00 AM 10.13 50.234 0.59 7.98 8.51 10.18
10/28/2020 7:00:00 AM 10.14 50.252 0.59 7.98 8.53 10.19
10/28/2020 7:15:00 AM 10.15 50.27 0.59 7.99 8.42 10.21
10/28/2020 7:30:00 AM 10.14 50.252 0.59 7.98 8.52 10.18
10/28/2020 7:45:00 AM 10.15 50.27 0.591 7.98 8.46 10.16
10/28/2020 8:00:00 AM 10.15 50.27 0.591 7.98 8.36 10.14
10/28/2020 8:15:00 AM 10.15 50.27 0.591 7.96 25.34 10.12
10/28/2020 8:30:00 AM 10.17 50.306 0.591 7.98 9.31 10.2
10/28/2020 8:45:00 AM 10.18 50.324 0.591 7.99 8.8 10.28
10/28/2020 9:00:00 AM 10.18 50.324 0.591 7.99 8.93 10.26
10/28/2020 9:15:00 AM 10.19 50.342 0.591 7.99 8.89 10.27
10/28/2020 9:30:00 AM 10.2 50.36 0.591 7.99 8.75 10.23
10/28/2020 9:45:00 AM 10.21 50.378 0.591 7.99 9.53 10.25
10/28/2020 10:00:00 AM 10.22 50.396 0.592 7.99 8.78 10.19
10/28/2020 10:15:00 AM 10.24 50.432 0.592 7.99 8.8 10.29
10/28/2020 10:30:00 AM 10.26 50.468 0.592 7.99 8.75 10.3
10/28/2020 10:45:00 AM 10.28 50.504 0.592 8 8.75 10.35
10/28/2020 11:00:00 AM 10.31 50.558 0.592 8 8.85 10.37
10/28/2020 11:15:00 AM 10.36 50.648 0.592 8.01 8.72 10.39
10/28/2020 11:30:00 AM 10.39 50.702 0.592 8.01 8.76 10.44
10/28/2020 11:45:00 AM 10.43 50.774 0.592 8.02 8.6 10.48
10/28/2020 12:00:00 PM 10.46 50.828 0.591 8.03 8.64 10.52
10/28/2020 12:15:00 PM 10.49 50.882 0.591 8.03 8.55 10.52
10/28/2020 12:30:00 PM 10.52 50.936 0.591 8.04 8.64 10.55
10/28/2020 12:45:00 PM 10.56 51.008 0.591 8.04 8.62 10.56
10/28/2020 1:00:00 PM 10.58 51.044 0.591 8.05 8.44 10.56
10/28/2020 1:15:00 PM 10.59 51.062 0.59 8.05 8.51 10.58
10/28/2020 1:30:00 PM 10.59 51.062 0.59 8.05 8.56 10.54
10/28/2020 1:45:00 PM 10.61 51.098 0.59 8.05 8.48 10.57
10/28/2020 2:00:00 PM 10.62 51.116 0.59 8.05 8.58 10.57
10/28/2020 2:15:00 PM 10.64 51.152 0.59 8.05 8.55 10.56
10/28/2020 2:30:00 PM 10.65 51.17 0.59 8.06 8.6 10.51
10/28/2020 2:45:00 PM 10.65 51.17 0.589 8.06 8.59 10.56
10/28/2020 3:00:00 PM 10.64 51.152 0.589 8.06 9.21 10.55
10/28/2020 3:15:00 PM 10.65 51.17 0.589 8.05 8.54 10.55
10/28/2020 3:30:00 PM 10.63 51.134 0.589 8.06 8.86 10.53
10/28/2020 3:45:00 PM 10.63 51.134 0.589 8.05 8.55 10.49
10/28/2020 4:00:00 PM 10.64 51.152 0.589 8.06 8.58 10.51
10/28/2020 4:15:00 PM 10.64 51.152 0.589 8.05 8.6 10.49
10/28/2020 4:30:00 PM 10.65 51.17 0.588 8.05 8.53 10.49
10/28/2020 4:45:00 PM 10.66 51.188 0.588 8.05 8.47 10.48
10/28/2020 5:00:00 PM 10.66 51.188 0.588 8.06 8.52 10.47
10/28/2020 5:15:00 PM 10.64 51.152 0.588 8.05 8.53 10.48
10/28/2020 5:30:00 PM 10.63 51.134 0.588 8.05 8.6 10.47
10/28/2020 5:45:00 PM 10.63 51.134 0.587 8.05 8.49 10.46
10/28/2020 6:00:00 PM 10.61 51.098 0.588 8.05 8.5 10.42
10/28/2020 6:15:00 PM 10.57 51.026 0.588 8.05 8.54 10.4
10/28/2020 6:30:00 PM 10.56 51.008 0.588 8.04 8.53 10.34
10/28/2020 6:45:00 PM 10.54 50.972 0.588 8.03 8.51 10.27
10/28/2020 7:00:00 PM 10.5 50.9 0.588 8.04 8.56 10.32
10/28/2020 7:15:00 PM 10.48 50.864 0.588 8.03 8.51 10.28
10/28/2020 7:30:00 PM 10.45 50.81 0.588 8.03 8.54 10.28
10/28/2020 7:45:00 PM 10.44 50.792 0.588 8.02 8.59 10.19
10/28/2020 8:00:00 PM 10.41 50.738 0.588 8.02 8.55 10.22
10/28/2020 8:15:00 PM 10.39 50.702 0.588 8.01 8.86 10.21
10/28/2020 8:30:00 PM 10.37 50.666 0.588 8.02 8.5 10.2
10/28/2020 8:45:00 PM 10.34 50.612 0.588 8.01 8.68 10.16
10/28/2020 9:00:00 PM 10.31 50.558 0.588 8.01 8.58 10.19
10/28/2020 9:15:00 PM 10.28 50.504 0.588 8 8.88 10.16
10/28/2020 9:30:00 PM 10.23 50.414 0.588 8.01 8.65 10.17
10/28/2020 9:45:00 PM 10.21 50.378 0.588 8 8.96 10.1
10/28/2020 10:00:00 PM 10.16 50.288 0.588 8 8.65 10.19
10/28/2020 10:15:00 PM 10.12 50.216 0.588 8 8.66 10.2
10/28/2020 10:30:00 PM 10.1 50.18 0.588 8 9.03 10.19
10/28/2020 10:45:00 PM 10.08 50.144 0.588 7.99 8.67 10.19
10/28/2020 11:00:00 PM 10.06 50.108 0.589 8 8.73 10.18
10/28/2020 11:15:00 PM 10.05 50.09 0.589 8 8.77 10.22
10/28/2020 11:30:00 PM 10.05 50.09 0.589 8 8.81 10.23
10/28/2020 11:45:00 PM 10.04 50.072 0.589 8 8.8 10.22
10/29/2020 12:00:00 AM 10.03 50.054 0.589 7.99 8.79 10.21
10/29/2020 12:15:00 AM 10.04 50.072 0.589 7.99 8.79 10.22
10/29/2020 12:30:00 AM 10.04 50.072 0.589 8 9.03 10.23
10/29/2020 12:45:00 AM 10.04 50.072 0.589 8 8.72 10.26
10/29/2020 1:00:00 AM 10.03 50.054 0.589 8 8.72 10.27
10/29/2020 1:15:00 AM 10.03 50.054 0.589 8 8.61 10.23
10/29/2020 1:30:00 AM 10.02 50.036 0.589 8 8.7 10.24
10/29/2020 1:45:00 AM 10.03 50.054 0.59 8.01 8.54 10.28
10/29/2020 2:00:00 AM 10.03 50.054 0.59 8.01 8.6 10.24
10/29/2020 2:15:00 AM 10.03 50.054 0.59 8 8.7 10.21
10/29/2020 2:30:00 AM 10.03 50.054 0.589 8 8.73 10.24
10/29/2020 2:45:00 AM 10.04 50.072 0.589 8 8.92 10.25
10/29/2020 3:00:00 AM 10.04 50.072 0.589 8 8.63 10.21
10/29/2020 3:15:00 AM 10.04 50.072 0.588 8 8.71 10.24
10/29/2020 3:30:00 AM 10.03 50.054 0.586 8 9.17 10.27
10/29/2020 3:45:00 AM 10.03 50.054 0.584 7.99 8.89 10.26
10/29/2020 4:00:00 AM 10.02 50.036 0.583 8 8.86 10.23
10/29/2020 4:15:00 AM 10.01 50.018 0.582 7.99 9.1 10.25
10/29/2020 4:30:00 AM 10.01 50.018 0.579 7.98 9.1 10.23
10/29/2020 4:45:00 AM 10 50 0.578 8 9.13 10.25
10/29/2020 5:00:00 AM 10 50 0.576 8 9.14 10.26
10/29/2020 5:15:00 AM 9.99 49.982 0.575 8 9.18 10.27
10/29/2020 5:30:00 AM 9.98 49.964 0.57 7.99 9.46 10.23
10/29/2020 5:45:00 AM 9.98 49.964 0.569 7.99 9.08 10.29
10/29/2020 6:00:00 AM 9.98 49.964 0.565 8 9.45 10.3
10/29/2020 6:15:00 AM 9.97 49.946 0.564 7.99 9.25 10.32
10/29/2020 6:30:00 AM 9.96 49.928 0.561 7.98 9.37 10.27
10/29/2020 6:45:00 AM 9.95 49.91 0.559 7.99 8.87 10.31
10/29/2020 7:00:00 AM 9.93 49.874 0.556 7.99 9.2 10.34
10/29/2020 7:15:00 AM 9.93 49.874 0.556 7.98 8.8 10.3
10/29/2020 7:30:00 AM 9.92 49.856 0.555 7.98 8.91 10.34
10/29/2020 7:45:00 AM 9.91 49.838 0.554 7.98 8.91 10.31
10/29/2020 8:00:00 AM 9.89 49.802 0.553 7.97 9.34 10.32
10/29/2020 8:15:00 AM 9.88 49.784 0.552 7.97 8.93 10.34
10/29/2020 8:30:00 AM 9.87 49.766 0.554 7.97 9 10.37
10/29/2020 8:45:00 AM 9.86 49.748 0.554 7.98 8.83 10.35
10/29/2020 9:00:00 AM 9.86 49.748 0.554 7.98 9.24 10.35
10/29/2020 9:15:00 AM 9.85 49.73 0.555 7.97 9.01 10.35
10/29/2020 9:30:00 AM 9.85 49.73 0.555 7.97 9.13 10.34
10/29/2020 9:45:00 AM 9.84 49.712 0.554 7.97 10.33 10.35
10/29/2020 10:00:00 AM 9.82 49.676 0.552 7.98 9.31 10.35
10/29/2020 10:15:00 AM 9.8 49.64 0.55 7.98 9.62 10.44
10/29/2020 10:30:00 AM 9.78 49.604 0.549 7.98 9.34 10.49
10/29/2020 10:45:00 AM 9.77 49.586 0.547 7.98 9.87 10.48
10/29/2020 11:00:00 AM 9.75 49.55 0.543 7.98 11.37 10.48
10/29/2020 11:15:00 AM 9.73 49.514 0.539 7.97 12.09 10.49
10/29/2020 11:30:00 AM 9.72 49.496 0.536 7.98 12.87 10.54
10/29/2020 11:45:00 AM 9.72 49.496 0.533 7.98 14.73 10.49
10/29/2020 12:00:00 PM 9.73 49.514 0.531 7.97 20.77 10.45
10/29/2020 12:15:00 PM 9.75 49.55 0.534 7.97 20.75 10.46
10/29/2020 12:30:00 PM 9.76 49.568 0.535 7.96 25.61 10.46
10/29/2020 12:45:00 PM 9.78 49.604 0.535 7.95 27.76 10.37
10/29/2020 1:00:00 PM 9.8 49.64 0.533 7.96 22.59 10.47
10/29/2020 1:15:00 PM 9.81 49.658 0.532 7.96 25.56 10.45
10/29/2020 1:30:00 PM 9.83 49.694 0.53 7.96 22.94 10.43
10/29/2020 1:45:00 PM 9.86 49.748 0.528 7.96 28 10.46
10/29/2020 2:00:00 PM 9.85 49.73 0.527 7.95 71.69 10.46
10/29/2020 2:15:00 PM 9.85 49.73 0.528 7.93 98.36 10.42
10/29/2020 2:30:00 PM 9.84 49.712 0.531 7.93 60.58 10.47
10/29/2020 2:45:00 PM 9.83 49.694 0.531 7.94 39.28 10.42
10/29/2020 3:00:00 PM 9.82 49.676 0.53 7.94 41.18 10.46
10/29/2020 3:15:00 PM 9.81 49.658 0.526 7.94 31.15 10.44
10/29/2020 3:30:00 PM 9.8 49.64 0.522 7.94 26.03 10.5
10/29/2020 3:45:00 PM 9.79 49.622 0.517 7.94 146.15 10.42
10/29/2020 4:00:00 PM 9.78 49.604 0.513 7.94 29.31 10.43
10/29/2020 4:15:00 PM 9.75 49.55 0.51 7.94 28.4 10.5
10/29/2020 4:30:00 PM 9.74 49.532 0.508 7.93 44.14 10.47
10/29/2020 4:45:00 PM 9.75 49.55 0.507 7.93 28.92 10.5
10/29/2020 5:00:00 PM 9.76 49.568 0.506 7.92 30.48 10.46
10/29/2020 5:15:00 PM 9.76 49.568 0.505 7.91 35.71 10.52
10/29/2020 5:30:00 PM 9.76 49.568 0.502 7.91 59.52 10.51
10/29/2020 5:45:00 PM 9.74 49.532 0.497 7.9 53.8 10.52
10/29/2020 6:00:00 PM 9.73 49.514 0.492 7.9 52.9 10.51
10/29/2020 6:15:00 PM 9.72 49.496 0.486 7.9 56.73 10.51
10/29/2020 6:30:00 PM 9.71 49.478 0.481 7.89 51.36 10.5
10/29/2020 6:45:00 PM 9.72 49.496 0.477 7.89 45.86 10.49
10/29/2020 7:00:00 PM 9.72 49.496 0.474 7.89 48.37 10.5
10/29/2020 7:15:00 PM 9.72 49.496 0.471 7.89 53.46 10.49
10/29/2020 7:30:00 PM 9.73 49.514 0.469 7.89 60.79 10.47
10/29/2020 7:45:00 PM 9.73 49.514 0.466 7.88 43.74 10.47
10/29/2020 8:00:00 PM 9.73 49.514 0.462 7.88 52.41 10.47
10/29/2020 8:15:00 PM 9.72 49.496 0.459 7.88 73.57 10.48
10/29/2020 8:30:00 PM 9.71 49.478 0.457 7.88 52.87 10.48
10/29/2020 8:45:00 PM 9.7 49.46 0.456 7.88 64.11 10.49
10/29/2020 9:00:00 PM 9.7 49.46 0.455 7.88 49.04 10.49
10/29/2020 9:15:00 PM 9.7 49.46 0.455 7.88 46.04 10.48
10/29/2020 9:30:00 PM 9.7 49.46 0.454 7.87 49.44 10.48
10/29/2020 9:45:00 PM 9.7 49.46 0.453 7.89 51.97 10.5
10/29/2020 10:00:00 PM 9.69 49.442 0.451 7.89 79.52 10.48
10/29/2020 10:15:00 PM 9.69 49.442 0.448 7.89 44.51 10.48
10/29/2020 10:30:00 PM 9.68 49.424 0.444 7.88 44.21 10.47
10/29/2020 10:45:00 PM 9.68 49.424 0.441 7.88 43.6 10.43
10/29/2020 11:00:00 PM 9.67 49.406 0.436 7.88 47.89 10.47
10/29/2020 11:15:00 PM 9.66 49.388 0.43 7.87 45.43 10.46
10/29/2020 11:30:00 PM 9.65 49.37 0.426 7.87 48.12 10.45
10/29/2020 11:45:00 PM 9.64 49.352 0.421 7.87 45.38 10.47
10/30/2020 12:00:00 AM 9.63 49.334 0.417 7.87 44.16 10.47
10/30/2020 12:15:00 AM 9.62 49.316 0.415 7.86 47.54 10.47
10/30/2020 12:30:00 AM 9.61 49.298 0.411 7.86 45.46 10.47
10/30/2020 12:45:00 AM 9.6 49.28 0.41 7.86 44.62 10.46
10/30/2020 1:00:00 AM 9.59 49.262 0.41 7.86 43.53 10.49
10/30/2020 1:15:00 AM 9.58 49.244 0.411 7.87 51.44 10.5
10/30/2020 1:30:00 AM 9.56 49.208 0.414 7.87 43.47 10.49
10/30/2020 1:45:00 AM 9.55 49.19 0.416 7.87 41.54 10.49
10/30/2020 2:00:00 AM 9.53 49.154 0.418 7.88 42.19 10.53
10/30/2020 2:15:00 AM 9.5 49.1 0.419 7.88 42.17 10.47
10/30/2020 2:30:00 AM 9.49 49.082 0.421 7.88 37.63 10.51
10/30/2020 2:45:00 AM 9.49 49.082 0.422 7.89 37.39 10.53
10/30/2020 3:00:00 AM 9.48 49.064 0.423 7.89 36.77 10.54
10/30/2020 3:15:00 AM 9.47 49.046 0.424 7.89 39.27 10.56
10/30/2020 3:30:00 AM 9.44 48.992 0.425 7.89 33.95 10.56
10/30/2020 3:45:00 AM 9.41 48.938 0.426 7.89 38.89 10.58
10/30/2020 4:00:00 AM 9.39 48.902 0.427 7.9 32.74 10.55
10/30/2020 4:15:00 AM 9.36 48.848 0.427 7.9 34.55 10.6
10/30/2020 4:30:00 AM 9.33 48.794 0.428 7.9 32.75 10.61
10/30/2020 4:45:00 AM 9.29 48.722 0.428 7.91 32.3 10.62
10/30/2020 5:00:00 AM 9.26 48.668 0.429 7.91 28.56 10.62
10/30/2020 5:15:00 AM 9.24 48.632 0.43 7.91 32.14 10.63
10/30/2020 5:30:00 AM 9.21 48.578 0.431 7.91 31.86 10.63
10/30/2020 5:45:00 AM 9.19 48.542 0.432 7.91 31.46 10.64
10/30/2020 6:00:00 AM 9.17 48.506 0.433 7.91 28.47 10.64
10/30/2020 6:15:00 AM 9.15 48.47 0.434 7.92 26.12 10.67
10/30/2020 6:30:00 AM 9.12 48.416 0.434 7.91 26.91 10.64
10/30/2020 6:45:00 AM 9.1 48.38 0.435 7.92 26.65 10.66
10/30/2020 7:00:00 AM 9.08 48.344 0.435 7.92 25.67 10.68
10/30/2020 7:15:00 AM 9.06 48.308 0.434 7.92 27.26 10.7
10/30/2020 7:30:00 AM 9.04 48.272 0.433 7.92 25.03 10.64
10/30/2020 7:45:00 AM 9.02 48.236 0.432 7.92 24.65 10.7
10/30/2020 8:00:00 AM 9 48.2 0.431 7.92 25.04 10.72
10/30/2020 8:15:00 AM 8.98 48.164 0.43 7.92 23.79 10.72
10/30/2020 8:30:00 AM 8.96 48.128 0.429 7.92 23.29 10.75
10/30/2020 8:45:00 AM 8.94 48.092 0.427 7.92 23.09 10.75
10/30/2020 9:00:00 AM 8.93 48.074 0.426 7.92 25.87 10.77
10/30/2020 9:15:00 AM 8.93 48.074 0.424 7.92 20.48 10.77
10/30/2020 9:30:00 AM 8.93 48.074 0.423 7.92 23.29 10.77
10/30/2020 9:45:00 AM 8.92 48.056 0.419 7.91 21.71 10.81
10/30/2020 10:00:00 AM 8.92 48.056 0.417 7.91 21.9 10.8
10/30/2020 10:15:00 AM 8.95 48.11 0.415 7.91 21.52 10.85
10/30/2020 10:30:00 AM 8.96 48.128 0.413 7.91 21.74 10.86
10/30/2020 10:45:00 AM 8.95 48.11 0.41 7.91 21.16 10.88
10/30/2020 11:00:00 AM 8.96 48.128 0.409 7.91 17.02 10.86
10/30/2020 11:15:00 AM 8.98 48.164 0.406 7.91 20.07 10.88
10/30/2020 11:30:00 AM 9 48.2 0.404 7.91 19.26 10.91
10/30/2020 11:45:00 AM 8.99 48.182 0.403 7.91 19.42 10.89
10/30/2020 12:00:00 PM 8.98 48.164 0.401 7.9 19.47 10.9
10/30/2020 12:15:00 PM 8.98 48.164 0.399 7.9 19.02 10.9
10/30/2020 12:30:00 PM 8.99 48.182 0.398 7.9 18.81 10.9
10/30/2020 12:45:00 PM 9 48.2 0.396 7.9 19.36 10.9
10/30/2020 1:00:00 PM 9 48.2 0.395 7.9 18.32 10.92
10/30/2020 1:15:00 PM 9.04 48.272 0.394 7.9 18.47 10.9
10/30/2020 1:30:00 PM 9.04 48.272 0.392 7.9 17.26 10.9
10/30/2020 1:45:00 PM 9.06 48.308 0.391 7.89 17.56 10.95
10/30/2020 2:00:00 PM 9.08 48.344 0.39 7.9 18.25 10.93
10/30/2020 2:15:00 PM 9.09 48.362 0.388 7.9 16.51 10.95
10/30/2020 2:30:00 PM 9.09 48.362 0.387 7.9 16.88 10.94
10/30/2020 2:45:00 PM 9.09 48.362 0.386 7.89 20.29 10.92
10/30/2020 3:00:00 PM 9.11 48.398 0.385 7.89 16.27 10.95
10/30/2020 3:15:00 PM 9.11 48.398 0.383 7.89 16.51 10.94
10/30/2020 3:30:00 PM 9.12 48.416 0.382 7.89 17.46 10.93
10/30/2020 3:45:00 PM 9.12 48.416 0.38 7.89 16.83 10.92
10/30/2020 4:00:00 PM 9.14 48.452 0.379 7.89 16.01 10.93
10/30/2020 4:15:00 PM 9.14 48.452 0.377 7.89 16.18 10.96
10/30/2020 4:30:00 PM 9.14 48.452 0.375 7.89 16.56 10.97
10/30/2020 4:45:00 PM 9.13 48.434 0.374 7.89 16.5 10.95
10/30/2020 5:00:00 PM 9.12 48.416 0.372 7.89 17.26 10.97
10/30/2020 5:15:00 PM 9.11 48.398 0.371 7.89 16.28 10.93
10/30/2020 5:30:00 PM 9.1 48.38 0.369 7.89 16.43 10.94
10/30/2020 5:45:00 PM 9.07 48.326 0.368 7.88 16.53 10.94
10/30/2020 6:00:00 PM 9.05 48.29 0.366 7.88 15.99 10.94
10/30/2020 6:15:00 PM 9.03 48.254 0.365 7.88 15.95 10.94
10/30/2020 6:30:00 PM 8.99 48.182 0.364 7.88 16.5 10.95
10/30/2020 6:45:00 PM 8.96 48.128 0.363 7.88 16.98 10.94
10/30/2020 7:00:00 PM 8.92 48.056 0.362 7.87 16.37 10.94
10/30/2020 7:15:00 PM 8.87 47.966 0.361 7.87 16.71 10.95
10/30/2020 7:30:00 PM 8.82 47.876 0.36 7.87 15.96 10.94
10/30/2020 7:45:00 PM 8.77 47.786 0.36 7.87 16.57 10.95
10/30/2020 8:00:00 PM 8.73 47.714 0.359 7.87 17.04 10.96
10/30/2020 8:15:00 PM 8.68 47.624 0.359 7.86 15.85 10.96
10/30/2020 8:30:00 PM 8.63 47.534 0.358 7.86 17.13 10.96
10/30/2020 8:45:00 PM 8.6 47.48 0.358 7.86 17.16 10.98
10/30/2020 9:00:00 PM 8.57 47.426 0.357 7.86 16.75 11.03
10/30/2020 9:15:00 PM 8.54 47.372 0.357 7.86 16.92 11.02
10/30/2020 9:30:00 PM 8.51 47.318 0.357 7.86 16.59 11.03
10/30/2020 9:45:00 PM 8.48 47.264 0.357 7.86 17.02 11.05
10/30/2020 10:00:00 PM 8.44 47.192 0.357 7.86 17.67 11.08
10/30/2020 10:15:00 PM 8.41 47.138 0.357 7.86 17.23 11.07
10/30/2020 10:30:00 PM 8.38 47.084 0.357 7.86 18.14 11.09
10/30/2020 10:45:00 PM 8.35 47.03 0.357 7.86 17.15 11.11
10/30/2020 11:00:00 PM 8.32 46.976 0.357 7.86 17.42 11.09
10/30/2020 11:15:00 PM 8.3 46.94 0.357 7.86 16.68 11.12
10/30/2020 11:30:00 PM 8.27 46.886 0.357 7.86 16.87 11.13
10/30/2020 11:45:00 PM 8.24 46.832 0.357 7.85 16.99 11.15
10/31/2020 12:00:00 AM 8.22 46.796 0.357 7.85 16.49 11.13
10/31/2020 12:15:00 AM 8.19 46.742 0.358 7.85 16.25 11.18
10/31/2020 12:30:00 AM 8.16 46.688 0.358 7.85 16.55 11.2
10/31/2020 12:45:00 AM 8.14 46.652 0.358 7.85 16.02 11.16
10/31/2020 1:00:00 AM 8.11 46.598 0.358 7.85 16.67 11.21
10/31/2020 1:15:00 AM 8.08 46.544 0.358 7.85 15.9 11.21
10/31/2020 1:30:00 AM 8.05 46.49 0.358 7.85 16.05 11.22
10/31/2020 1:45:00 AM 8.03 46.454 0.358 7.85 15.6 11.22
10/31/2020 2:00:00 AM 8 46.4 0.358 7.85 15.36 11.24
10/31/2020 2:15:00 AM 7.98 46.364 0.358 7.84 15.57 11.25
10/31/2020 2:30:00 AM 7.96 46.328 0.358 7.85 15.87 11.26
10/31/2020 2:45:00 AM 7.93 46.274 0.358 7.85 15.61 11.25
10/31/2020 3:00:00 AM 7.91 46.238 0.358 7.85 15.94 11.25
10/31/2020 3:15:00 AM 7.88 46.184 0.358 7.82 16.89 11.27
10/31/2020 3:30:00 AM 7.86 46.148 0.357 7.85 20.09 11.26
10/31/2020 3:45:00 AM 7.83 46.094 0.357 7.83 29.17 11.26
10/31/2020 4:00:00 AM 7.81 46.058 0.357 7.83 14.93 11.22
10/31/2020 4:15:00 AM 7.78 46.004 0.357 7.83 13.35 11.29
10/31/2020 4:30:00 AM 7.76 45.968 0.357 7.82 13.79 11.25
10/31/2020 4:45:00 AM 7.73 45.914 0.357 7.82 14.41 11.27
10/31/2020 5:00:00 AM 7.71 45.878 0.356 7.82 12.95 11.31
10/31/2020 5:15:00 AM 7.69 45.842 0.356 7.82 13.14 11.31
10/31/2020 5:30:00 AM 7.67 45.806 0.356 7.83 12.37 11.32
10/31/2020 5:45:00 AM 7.65 45.77 0.356 7.83 13.14 11.35
10/31/2020 6:00:00 AM 7.63 45.734 0.356 7.82 12.52 11.31
10/31/2020 6:15:00 AM 7.61 45.698 0.356 7.83 12.48 11.33
10/31/2020 6:30:00 AM 7.59 45.662 0.355 7.83 12.6 11.35
10/31/2020 6:45:00 AM 7.55 45.59 0.355 7.83 12.47 11.37
10/31/2020 7:00:00 AM 7.48 45.464 0.355 7.83 13.24 11.32
10/31/2020 7:15:00 AM 7.42 45.356 0.355 7.83 12.27 11.4
10/31/2020 7:30:00 AM 7.37 45.266 0.355 7.82 13.14 11.39
10/31/2020 7:45:00 AM 7.32 45.176 0.354 7.82 12.22 11.42
10/31/2020 8:00:00 AM 7.28 45.104 0.354 7.82 13.97 11.42
10/31/2020 8:15:00 AM 7.24 45.032 0.354 7.82 11.61 11.46
10/31/2020 8:30:00 AM 7.22 44.996 0.354 7.83 12.49 11.47
10/31/2020 8:45:00 AM 7.2 44.96 0.353 7.83 11.74 11.49
10/31/2020 9:00:00 AM 7.17 44.906 0.353 7.83 11.96 11.5
10/31/2020 9:15:00 AM 7.15 44.87 0.353 7.83 16.6 11.54
10/31/2020 9:30:00 AM 7.13 44.834 0.352 7.83 14.51 11.57
10/31/2020 9:45:00 AM 7.09 44.762 0.352 7.84 13.68 11.58
10/31/2020 10:00:00 AM 7.05 44.69 0.352 7.84 14.7 11.58
10/31/2020 10:15:00 AM 7.09 44.762 0.352 7.84 15.17 11.6
10/31/2020 10:30:00 AM 7.13 44.834 0.351 7.84 14.31 11.6
10/31/2020 10:45:00 AM 7.16 44.888 0.351 7.85 13.93 11.63
10/31/2020 11:00:00 AM 7.18 44.924 0.351 7.85 13.72 11.63
10/31/2020 11:15:00 AM 7.23 45.014 0.35 7.86 14.35 11.67
10/31/2020 11:30:00 AM 7.25 45.05 0.35 7.86 14.1 11.69
10/31/2020 11:45:00 AM 7.27 45.086 0.35 7.86 14.15 11.72
10/31/2020 12:00:00 PM 7.37 45.266 0.35 7.87 13.69 11.71
10/31/2020 12:15:00 PM 7.43 45.374 0.349 7.87 13.19 11.71
10/31/2020 12:30:00 PM 7.55 45.59 0.349 7.87 13.46 11.71
10/31/2020 12:45:00 PM 7.54 45.572 0.349 7.87 13.21 11.69
10/31/2020 1:00:00 PM 7.61 45.698 0.348 7.87 12.81 11.68
10/31/2020 1:15:00 PM 7.64 45.752 0.348 7.88 13.04 11.7
10/31/2020 1:30:00 PM 7.72 45.896 0.348 7.88 12.97 11.69
10/31/2020 1:45:00 PM 7.73 45.914 0.348 7.88 13.54 11.66
10/31/2020 2:00:00 PM 7.88 46.184 0.347 7.88 12.66 11.64
10/31/2020 2:15:00 PM 8.04 46.472 0.347 7.87 12.81 11.62
10/31/2020 2:30:00 PM 7.99 46.382 0.347 7.88 12.54 11.64
10/31/2020 2:45:00 PM 8.07 46.526 0.346 7.88 12.28 11.61
10/31/2020 3:00:00 PM 8.15 46.67 0.347 7.88 12.38 11.6
10/31/2020 3:15:00 PM 8.14 46.652 0.346 7.88 12.17 11.56
10/31/2020 3:30:00 PM 8.25 46.85 0.346 7.85 12.26 11.53
10/31/2020 3:45:00 PM 8.27 46.886 0.346 7.88 12.31 11.53
10/31/2020 4:00:00 PM 8.35 47.03 0.346 7.88 12.82 11.45
10/31/2020 4:15:00 PM 8.34 47.012 0.346 7.88 12.32 11.47
10/31/2020 4:30:00 PM 8.32 46.976 0.345 7.88 12.61 11.47
10/31/2020 4:45:00 PM 8.29 46.922 0.345 7.86 15.96 11.45
10/31/2020 5:00:00 PM 8.28 46.904 0.345 7.88 13.47 11.4
10/31/2020 5:15:00 PM 8.24 46.832 0.345 7.88 13.31 11.42
10/31/2020 5:30:00 PM 8.18 46.724 0.345 7.87 12.41 11.41
10/31/2020 5:45:00 PM 8.14 46.652 0.345 7.88 12.1 11.39
10/31/2020 6:00:00 PM 8.08 46.544 0.345 7.87 11.88 11.4
10/31/2020 6:15:00 PM 8.02 46.436 0.345 7.86 12.05 11.37
10/31/2020 6:30:00 PM 7.93 46.274 0.345 7.87 11.74 11.36
10/31/2020 6:45:00 PM 7.85 46.13 0.345 7.83 12.12 11.39
10/31/2020 7:00:00 PM 7.79 46.022 0.345 7.86 11.97 11.35
10/31/2020 7:15:00 PM 7.72 45.896 0.345 7.85 12.06 11.37
10/31/2020 7:30:00 PM 7.66 45.788 0.345 7.84 12.28 11.37
10/31/2020 7:45:00 PM 7.59 45.662 0.345 7.86 12.26 11.42
10/31/2020 8:00:00 PM 7.52 45.536 0.345 7.86 12.58 11.41
10/31/2020 8:15:00 PM 7.45 45.41 0.345 7.86 12.09 11.42
10/31/2020 8:30:00 PM 7.39 45.302 0.345 7.86 12.92 11.43
10/31/2020 8:45:00 PM 7.33 45.194 0.345 7.84 11.86 11.45
10/31/2020 9:00:00 PM 7.26 45.068 0.345 7.85 11.85 11.45
10/31/2020 9:15:00 PM 7.19 44.942 0.345 7.84 12.14 11.47
10/31/2020 9:30:00 PM 7.13 44.834 0.345 7.85 12.39 11.49
10/31/2020 9:45:00 PM 7.07 44.726 0.345 7.84 13.19 11.5
10/31/2020 10:00:00 PM 7.01 44.618 0.345 7.85 11.96 11.52
10/31/2020 10:15:00 PM 6.96 44.528 0.345 7.85 11.87 11.52
10/31/2020 10:30:00 PM 6.9 44.42 0.345 7.85 12.06 11.54
10/31/2020 10:45:00 PM 6.85 44.33 0.346 7.82 11.8 11.54
10/31/2020 11:00:00 PM 6.79 44.222 0.346 7.84 11.72 11.54
10/31/2020 11:15:00 PM 6.75 44.15 0.346 7.84 11.8 11.55
10/31/2020 11:30:00 PM 6.69 44.042 0.346 7.84 11.96 11.56
10/31/2020 11:45:00 PM 6.64 43.952 0.346 7.84 11.81 11.58
11/1/2020 12:00:00 AM 6.58 43.844 0.346 7.84 12.42 11.59
11/1/2020 12:15:00 AM 6.54 43.772 0.346 7.82 11.77 11.61
11/1/2020 12:30:00 AM 6.48 43.664 0.347 7.84 11.3 11.61
11/1/2020 12:45:00 AM 6.43 43.574 0.347 7.84 11.06 11.63
11/1/2020 1:00:00 AM 6.39 43.502 0.347 7.84 11.74 11.65
11/1/2020 1:15:00 AM 6.33 43.394 0.347 7.84 11.16 11.66
11/1/2020 1:30:00 AM 6.29 43.322 0.347 7.83 11.33 11.65
11/1/2020 1:45:00 AM 6.25 43.25 0.348 7.83 12.15 11.69
11/1/2020 2:00:00 AM 6.21 43.178 0.348 7.84 11.74 11.69
11/1/2020 2:15:00 AM 6.17 43.106 0.348 7.84 11.39 11.7
11/1/2020 2:30:00 AM 6.13 43.034 0.348 7.84 10.92 11.72
11/1/2020 2:45:00 AM 6.09 42.962 0.348 7.83 11.12 11.72
11/1/2020 3:00:00 AM 6.06 42.908 0.349 7.83 11.44 11.71
11/1/2020 3:15:00 AM 6.02 42.836 0.349 7.83 11.5 11.71
11/1/2020 3:30:00 AM 5.99 42.782 0.349 7.83 11.51 11.73
11/1/2020 3:45:00 AM 5.97 42.746 0.349 7.82 11.47 11.72
11/1/2020 4:00:00 AM 5.94 42.692 0.349 7.81 11.55 11.75
11/1/2020 4:15:00 AM 5.91 42.638 0.349 7.82 11.3 11.74
11/1/2020 4:30:00 AM 5.87 42.566 0.349 7.83 11.09 11.76
11/1/2020 4:45:00 AM 5.83 42.494 0.35 7.83 11.11 11.77
11/1/2020 5:00:00 AM 5.8 42.44 0.35 7.83 11.11 11.78
11/1/2020 5:15:00 AM 5.76 42.368 0.35 7.83 10.89 11.79
11/1/2020 5:30:00 AM 5.73 42.314 0.35 7.83 11.02 11.82
11/1/2020 5:45:00 AM 5.69 42.242 0.35 7.83 10.91 11.8
11/1/2020 6:00:00 AM 5.66 42.188 0.35 7.81 11.2 11.81
11/1/2020 6:15:00 AM 5.62 42.116 0.35 7.83 11.04 11.85
11/1/2020 6:30:00 AM 5.57 42.026 0.35 7.83 10.95 11.86
11/1/2020 6:45:00 AM 5.53 41.954 0.35 7.83 10.97 11.86
11/1/2020 7:00:00 AM 5.5 41.9 0.351 7.83 10.79 11.81
11/1/2020 7:15:00 AM 5.46 41.828 0.351 7.83 10.76 11.87
11/1/2020 7:30:00 AM 5.43 41.774 0.351 7.82 11.34 11.89
11/1/2020 7:45:00 AM 5.42 41.756 0.351 7.82 10.94 11.86
11/1/2020 8:00:00 AM 5.41 41.738 0.351 7.83 10.67 11.87
11/1/2020 8:15:00 AM 5.41 41.738 0.351 7.83 10.79 11.88
11/1/2020 8:30:00 AM 5.4 41.72 0.351 7.82 10.67 11.89
11/1/2020 8:45:00 AM 5.4 41.72 0.351 7.83 10.67 11.88
11/1/2020 9:00:00 AM 5.4 41.72 0.351 7.83 10.56 11.89
11/1/2020 9:15:00 AM 5.42 41.756 0.351 7.83 10.52 11.92
11/1/2020 9:30:00 AM 5.41 41.738 0.351 7.83 10.33 11.92
11/1/2020 9:45:00 AM 5.42 41.756 0.351 7.83 10.45 11.91
11/1/2020 10:00:00 AM 5.42 41.756 0.351 7.83 11.32 11.87
11/1/2020 10:15:00 AM 5.42 41.756 0.351 7.82 11.05 11.91
11/1/2020 10:30:00 AM 5.42 41.756 0.351 7.83 10.63 11.91
11/1/2020 10:45:00 AM 5.43 41.774 0.351 7.82 10.62 11.98
11/1/2020 11:00:00 AM 5.47 41.846 0.351 7.83 10.79 11.95
11/1/2020 11:15:00 AM 5.49 41.882 0.351 7.84 10.6 11.93
11/1/2020 11:30:00 AM 5.56 42.008 0.351 7.81 10.33 11.93
11/1/2020 11:45:00 AM 5.6 42.08 0.351 7.84 10.22 11.97
11/1/2020 12:00:00 PM 5.6 42.08 0.351 7.83 10.45 11.92
11/1/2020 12:15:00 PM 5.63 42.134 0.351 7.84 10.27 11.94
11/1/2020 12:30:00 PM 5.67 42.206 0.351 7.85 10.91 11.96
11/1/2020 12:45:00 PM 5.69 42.242 0.351 7.85 10.34 11.93
11/1/2020 1:00:00 PM 5.72 42.296 0.35 7.84 10.31 11.93
11/1/2020 1:15:00 PM 5.8 42.44 0.35 7.84 10.46 11.9
11/1/2020 1:30:00 PM 5.96 42.728 0.35 7.83 10.19 11.87
11/1/2020 1:45:00 PM 5.84 42.512 0.343 7.85 16.27 11.9
11/1/2020 2:00:00 PM 5.9 42.62 0.344 7.84 11.94 11.87
11/1/2020 2:15:00 PM 6.02 42.836 0.344 7.82 10.8 11.88
11/1/2020 2:30:00 PM 6.31 43.358 0.345 7.84 12.19 11.85
11/1/2020 2:45:00 PM 6.4 43.52 0.345 7.84 11.58 11.79
11/1/2020 3:00:00 PM 6.29 43.322 0.345 7.82 11.72 11.79
11/1/2020 3:15:00 PM 6.29 43.322 0.345 7.84 10.69 11.84
11/1/2020 3:30:00 PM 6.4 43.52 0.347 7.85 10.72 11.8
11/1/2020 3:45:00 PM 6.51 43.718 0.348 7.85 10.55 11.72
11/1/2020 4:00:00 PM 6.46 43.628 0.349 7.85 11.15 11.75
11/1/2020 4:15:00 PM 6.44 43.592 0.349 7.85 10.5 11.7
11/1/2020 4:30:00 PM 6.44 43.592 0.349 7.85 10.71 11.65
11/1/2020 4:45:00 PM 6.45 43.61 0.348 7.86 10.73 11.72
11/1/2020 5:00:00 PM 6.47 43.646 0.349 7.85 10.72 11.67
11/1/2020 5:15:00 PM 6.45 43.61 0.349 7.86 12.21 11.69
11/1/2020 5:30:00 PM 6.41 43.538 0.349 7.84 10.68 11.59
11/1/2020 5:45:00 PM 6.36 43.448 0.349 7.85 10.88 11.65
11/1/2020 6:00:00 PM 6.34 43.412 0.349 7.85 10.44 11.63
11/1/2020 6:15:00 PM 6.33 43.394 0.349 7.85 10.21 11.61
11/1/2020 6:30:00 PM 6.29 43.322 0.349 7.85 10.88 11.62
11/1/2020 6:45:00 PM 6.25 43.25 0.35 7.85 11.79 11.64
11/1/2020 7:00:00 PM 6.22 43.196 0.35 7.84 10.69 11.61
11/1/2020 7:15:00 PM 6.2 43.16 0.35 7.84 10.5 11.51
11/1/2020 7:30:00 PM 6.18 43.124 0.35 7.84 10.86 11.6
11/1/2020 7:45:00 PM 6.14 43.052 0.35 7.81 10.49 11.59
11/1/2020 8:00:00 PM 6.1 42.98 0.35 7.82 10.53 11.6
11/1/2020 8:15:00 PM 6.06 42.908 0.351 7.84 10.38 11.6
11/1/2020 8:30:00 PM 6.01 42.818 0.351 7.84 10.3 11.61
11/1/2020 8:45:00 PM 5.94 42.692 0.352 7.84 10.67 11.64
11/1/2020 9:00:00 PM 5.87 42.566 0.352 7.84 10.21 11.65
11/1/2020 9:15:00 PM 5.82 42.476 0.353 7.84 10.3 11.61
11/1/2020 9:30:00 PM 5.78 42.404 0.353 7.84 10.16 11.72
11/1/2020 9:45:00 PM 5.76 42.368 0.353 7.84 10.33 11.57
11/1/2020 10:00:00 PM 5.73 42.314 0.354 7.84 10.21 11.71
11/1/2020 10:15:00 PM 5.7 42.26 0.354 7.82 10.24 11.69
11/1/2020 10:30:00 PM 5.68 42.224 0.354 7.84 10.11 11.72
11/1/2020 10:45:00 PM 5.66 42.188 0.354 7.84 10.29 11.71
11/1/2020 11:00:00 PM 5.63 42.134 0.354 7.84 10.06 11.72
11/1/2020 11:15:00 PM 5.61 42.098 0.354 7.84 10.22 11.77
11/1/2020 11:30:00 PM 5.58 42.044 0.354 7.83 10.27 11.7
11/1/2020 11:45:00 PM 5.55 41.99 0.355 7.83 9.94 11.73
11/2/2020 12:00:00 AM 5.54 41.972 0.355 7.84 9.85 11.77
11/2/2020 12:15:00 AM 5.5 41.9 0.355 7.84 10.06 11.74
11/2/2020 12:30:00 AM 5.48 41.864 0.356 7.83 10.02 11.77
11/2/2020 12:45:00 AM 5.46 41.828 0.356 7.84 9.78 11.8
11/2/2020 1:00:00 AM 5.41 41.738 0.356 7.84 10.35 11.76
11/2/2020 1:15:00 AM 5.39 41.702 0.356 7.84 9.81 11.83
11/2/2020 1:30:00 AM 5.36 41.648 0.357 7.84 9.96 11.77
11/2/2020 1:45:00 AM 5.32 41.576 0.357 7.84 9.78 11.84
11/2/2020 2:00:00 AM 5.28 41.504 0.357 7.84 9.82 11.81
11/2/2020 2:15:00 AM 5.26 41.468 0.358 7.84 9.89 11.83
11/2/2020 2:30:00 AM 5.21 41.378 0.358 7.84 9.85 11.75
11/2/2020 2:45:00 AM 5.19 41.342 0.358 7.84 9.66 11.82
11/2/2020 3:00:00 AM 5.18 41.324 0.358 7.84 9.8 11.84
11/2/2020 3:15:00 AM 5.16 41.288 0.358 7.85 9.8 11.86
11/2/2020 3:30:00 AM 5.13 41.234 0.359 7.84 9.76 11.9
11/2/2020 3:45:00 AM 5.1 41.18 0.359 7.85 9.71 11.89
11/2/2020 4:00:00 AM 5.07 41.126 0.359 7.84 9.92 11.93
11/2/2020 4:15:00 AM 5.05 41.09 0.359 7.84 9.87 11.93
11/2/2020 4:30:00 AM 5.02 41.036 0.359 7.84 9.66 11.93
11/2/2020 4:45:00 AM 5.01 41.018 0.36 7.84 9.92 11.94
11/2/2020 5:00:00 AM 4.98 40.964 0.36 7.84 9.78 11.97
11/2/2020 5:15:00 AM 4.95 40.91 0.36 7.84 9.51 11.97
11/2/2020 5:30:00 AM 4.92 40.856 0.36 7.85 10.26 11.98
11/2/2020 5:45:00 AM 4.87 40.766 0.36 7.84 9.69 11.95
11/2/2020 6:00:00 AM 4.83 40.694 0.36 7.84 11.37 12.02
11/2/2020 6:15:00 AM 4.77 40.586 0.36 7.84 9.79 11.99
11/2/2020 6:30:00 AM 4.73 40.514 0.36 7.84 9.77 12.03
11/2/2020 6:45:00 AM 4.7 40.46 0.36 7.84 9.71 12.07
11/2/2020 7:00:00 AM 4.66 40.388 0.361 7.83 9.55 12.04
11/2/2020 7:15:00 AM 4.61 40.298 0.361 7.83 9.7 11.96
11/2/2020 7:30:00 AM 4.53 40.154 0.361 7.82 10.15 12.08
11/2/2020 7:45:00 AM 4.46 40.028 0.361 7.81 10.77 12.11
11/2/2020 8:00:00 AM 4.42 39.956 0.361 7.82 10.05 12.14
11/2/2020 8:15:00 AM 4.39 39.902 0.361 7.8 9.82 12.15
11/2/2020 8:30:00 AM 4.38 39.884 0.361 7.82 10.06 12.18
11/2/2020 8:45:00 AM 4.4 39.92 0.36 7.83 9.75 12.17
11/2/2020 9:00:00 AM 4.38 39.884 0.36 7.83 13.59 12.25
11/2/2020 9:15:00 AM 4.39 39.902 0.36 7.83 10.47 12.25
11/2/2020 9:30:00 AM 4.41 39.938 0.36 7.85 9.97 12.28
11/2/2020 9:45:00 AM 4.44 39.992 0.36 7.85 10.38 12.27
11/2/2020 10:00:00 AM 4.46 40.028 0.36 7.85 9.79 12.26
11/2/2020 10:15:00 AM 4.47 40.046 0.36 7.86 10.75 12.25
11/2/2020 10:30:00 AM 4.47 40.046 0.359 7.86 10.36 12.33
11/2/2020 10:45:00 AM 4.48 40.064 0.359 7.87 9.75 12.34
11/2/2020 11:00:00 AM 4.48 40.064 0.359 7.87 9.95 12.35
11/2/2020 11:15:00 AM 4.48 40.064 0.359 7.86 9.75 12.35
11/2/2020 11:30:00 AM 4.47 40.046 0.359 7.88 11.32 12.34
11/2/2020 11:45:00 AM 4.47 40.046 0.359 7.87 9.73 12.36
11/2/2020 12:00:00 PM 4.48 40.064 0.359 7.88 9.56 12.36
11/2/2020 12:15:00 PM 4.51 40.118 0.359 7.88 9.73 12.37
11/2/2020 12:30:00 PM 4.52 40.136 0.36 7.86 9.63 12.4
11/2/2020 12:45:00 PM 4.52 40.136 0.36 7.88 9.57 12.41
11/2/2020 1:00:00 PM 4.53 40.154 0.36 7.87 10.53 12.42
11/2/2020 1:15:00 PM 4.55 40.19 0.36 7.87 9.61 12.43
11/2/2020 1:30:00 PM 4.6 40.28 0.36 7.89 9.26 12.43
11/2/2020 1:45:00 PM 4.64 40.352 0.36 7.86 9.51 12.46
11/2/2020 2:00:00 PM 4.77 40.586 0.36 7.89 10.08 12.46
11/2/2020 2:15:00 PM 4.78 40.604 0.36 7.89 9.52 12.42
11/2/2020 2:30:00 PM 4.91 40.838 0.36 7.87 9.57 12.44
11/2/2020 2:45:00 PM 4.95 40.91 0.36 7.9 9.35 12.44
11/2/2020 3:00:00 PM 4.9 40.82 0.36 7.9 9.29 12.4
11/2/2020 3:15:00 PM 4.95 40.91 0.36 7.9 9.18 12.45
11/2/2020 3:30:00 PM 4.92 40.856 0.36 7.88 9.25 12.4
11/2/2020 3:45:00 PM 4.91 40.838 0.36 7.9 9.19 12.39
11/2/2020 4:00:00 PM 4.91 40.838 0.36 7.91 9.38 12.42
11/2/2020 4:15:00 PM 4.91 40.838 0.361 7.91 9.9 12.44
11/2/2020 4:30:00 PM 4.89 40.802 0.361 7.88 9.31 12.28
11/2/2020 4:45:00 PM 4.89 40.802 0.361 7.9 9.17 12.35
11/2/2020 5:00:00 PM 4.84 40.712 0.361 7.9 9.14 12.36
11/2/2020 5:15:00 PM 4.78 40.604 0.361 7.9 9.26 12.37
11/2/2020 5:30:00 PM 4.72 40.496 0.361 7.9 9.36 12.36
11/2/2020 5:45:00 PM 4.67 40.406 0.361 7.9 9.21 12.34
11/2/2020 6:00:00 PM 4.66 40.388 0.36 7.9 9.22 12.25
11/2/2020 6:15:00 PM 4.65 40.37 0.36 7.89 9.24 12.31
11/2/2020 6:30:00 PM 4.64 40.352 0.36 7.88 9.3 12.2
11/2/2020 6:45:00 PM 4.63 40.334 0.36 7.88 11.92 12.28
11/2/2020 7:00:00 PM 4.62 40.316 0.36 7.87 9.9 12.2
11/2/2020 7:15:00 PM 4.63 40.334 0.36 7.88 9.49 12.21
11/2/2020 7:30:00 PM 4.64 40.352 0.36 7.86 9.49 12.19
11/2/2020 7:45:00 PM 4.64 40.352 0.36 7.88 9.51 12.17
11/2/2020 8:00:00 PM 4.63 40.334 0.36 7.87 9.24 12.23
11/2/2020 8:15:00 PM 4.61 40.298 0.36 7.87 9.39 12.19
11/2/2020 8:30:00 PM 4.59 40.262 0.361 7.86 9.53 12.2
11/2/2020 8:45:00 PM 4.58 40.244 0.361 7.87 9.36 12.19
11/2/2020 9:00:00 PM 4.57 40.226 0.361 7.87 9.52 12.2
11/2/2020 9:15:00 PM 4.54 40.172 0.361 7.86 9.32 12.19
11/2/2020 9:30:00 PM 4.51 40.118 0.361 7.87 9.35 12.24
11/2/2020 9:45:00 PM 4.47 40.046 0.361 7.87 9.85 12.23
11/2/2020 10:00:00 PM 4.42 39.956 0.362 7.87 9.31 12.27
11/2/2020 10:15:00 PM 4.38 39.884 0.362 7.87 9.4 12.2
11/2/2020 10:30:00 PM 4.33 39.794 0.362 7.85 9.29 12.19
11/2/2020 10:45:00 PM 4.28 39.704 0.362 7.86 9.36 12.2
11/2/2020 11:00:00 PM 4.26 39.668 0.362 7.86 9.23 12.2
11/2/2020 11:15:00 PM 4.22 39.596 0.362 7.87 9.34 12.27
11/2/2020 11:30:00 PM 4.2 39.56 0.363 7.85 9.22 12.26
11/2/2020 11:45:00 PM 4.16 39.488 0.363 7.87 9.32 12.27
11/3/2020 12:00:00 AM 4.14 39.452 0.363 7.86 9.32 12.29
11/3/2020 12:15:00 AM 4.12 39.416 0.363 7.86 9.39 12.3
11/3/2020 12:30:00 AM 4.1 39.38 0.363 7.86 9.29 12.28
11/3/2020 12:45:00 AM 4.1 39.38 0.364 7.86 9.19 12.31
11/3/2020 1:00:00 AM 4.08 39.344 0.364 7.86 9.28 12.32
11/3/2020 1:15:00 AM 4.07 39.326 0.364 7.85 9.32 12.31
11/3/2020 1:30:00 AM 4.07 39.326 0.364 7.86 9.25 12.33
11/3/2020 1:45:00 AM 4.05 39.29 0.364 7.85 9.3 12.28
11/3/2020 2:00:00 AM 4.03 39.254 0.365 7.84 9.17 12.31
11/3/2020 2:15:00 AM 4.01 39.218 0.365 7.85 9.35 12.35
11/3/2020 2:30:00 AM 3.99 39.182 0.365 7.85 9.39 12.35
11/3/2020 2:45:00 AM 3.97 39.146 0.365 7.86 9.22 12.37
11/3/2020 3:00:00 AM 3.94 39.092 0.365 7.84 9.23 12.34
11/3/2020 3:15:00 AM 3.9 39.02 0.366 7.84 9.16 12.31
11/3/2020 3:30:00 AM 3.88 38.984 0.366 7.85 9.31 12.4
11/3/2020 3:45:00 AM 3.86 38.948 0.366 7.85 9.5 12.42
11/3/2020 4:00:00 AM 3.83 38.894 0.366 7.86 9.2 12.45
11/3/2020 4:15:00 AM 3.8 38.84 0.366 7.85 9.41 12.43
11/3/2020 4:30:00 AM 3.77 38.786 0.367 7.85 9.23 12.41
11/3/2020 4:45:00 AM 3.74 38.732 0.367 7.85 9.25 12.47
11/3/2020 5:00:00 AM 3.71 38.678 0.367 7.85 9.28 12.4
11/3/2020 5:15:00 AM 3.69 38.642 0.367 7.85 9.22 12.35
11/3/2020 5:30:00 AM 3.66 38.588 0.368 7.85 9.2 12.44
11/3/2020 5:45:00 AM 3.65 38.57 0.368 7.84 9.13 12.43
11/3/2020 6:00:00 AM 3.63 38.534 0.368 7.85 9.13 12.45
11/3/2020 6:15:00 AM 3.61 38.498 0.368 7.85 9.15 12.48
11/3/2020 6:30:00 AM 3.58 38.444 0.369 7.83 9.14 12.42
11/3/2020 6:45:00 AM 3.57 38.426 0.369 7.84 9.16 12.44
11/3/2020 7:00:00 AM 3.56 38.408 0.369 7.85 9.23 12.47
11/3/2020 7:15:00 AM 3.54 38.372 0.369 7.85 9.16 12.51
11/3/2020 7:30:00 AM 3.53 38.354 0.369 7.85 12.11 12.49
11/3/2020 7:45:00 AM 3.51 38.318 0.37 7.84 9.69 12.53
11/3/2020 8:00:00 AM 3.49 38.282 0.37 7.85 9.18 12.53
11/3/2020 8:15:00 AM 3.49 38.282 0.37 7.85 10.03 12.53
11/3/2020 8:30:00 AM 3.49 38.282 0.37 7.85 9.34 12.5
11/3/2020 8:45:00 AM 3.49 38.282 0.37 7.85 9.22 12.54
11/3/2020 9:00:00 AM 3.49 38.282 0.37 7.83 9.28 12.59
11/3/2020 9:15:00 AM 3.49 38.282 0.371 7.83 9.2 12.62
11/3/2020 9:30:00 AM 3.51 38.318 0.371 7.86 9.2 12.58
11/3/2020 9:45:00 AM 3.53 38.354 0.371 7.86 9.47 12.65
11/3/2020 10:00:00 AM 3.61 38.498 0.371 7.86 9.53 12.56
11/3/2020 10:15:00 AM 3.72 38.696 0.371 7.85 9.31 12.61
11/3/2020 10:30:00 AM 3.81 38.858 0.372 7.87 9.42 12.65
11/3/2020 10:45:00 AM 3.86 38.948 0.371 7.87 9.28 12.63
11/3/2020 11:00:00 AM 3.91 39.038 0.372 7.87 9.26 12.61
11/3/2020 11:15:00 AM 3.95 39.11 0.372 7.87 9.3 12.61
11/3/2020 11:30:00 AM 4 39.2 0.372 7.88 9.52 12.61
11/3/2020 11:45:00 AM 4.04 39.272 0.372 7.88 10.25 12.63
11/3/2020 12:00:00 PM 4.1 39.38 0.373 7.88 9.09 12.64
11/3/2020 12:15:00 PM 4.14 39.452 0.373 7.89 9.18 12.58
11/3/2020 12:30:00 PM 4.21 39.578 0.373 7.89 9.09 12.6
11/3/2020 12:45:00 PM 4.29 39.722 0.373 7.88 9.13 12.56
11/3/2020 1:00:00 PM 4.38 39.884 0.373 7.88 9.07 12.54
11/3/2020 1:15:00 PM 4.48 40.064 0.374 7.89 9.02 12.57
11/3/2020 1:30:00 PM 4.59 40.262 0.374 7.89 9.05 12.55
11/3/2020 1:45:00 PM 4.72 40.496 0.374 7.89 9.54 12.5
11/3/2020 2:00:00 PM 4.93 40.874 0.374 7.88 9.01 12.52
11/3/2020 2:15:00 PM 5.07 41.126 0.374 7.9 9.74 12.51
11/3/2020 2:30:00 PM 5.12 41.216 0.374 7.9 9.7 12.52
11/3/2020 2:45:00 PM 5.21 41.378 0.374 7.9 9.39 12.54
11/3/2020 3:00:00 PM 5.42 41.756 0.375 7.89 10.37 12.42
11/3/2020 3:15:00 PM 5.59 42.062 0.375 7.9 9.13 12.4
11/3/2020 3:30:00 PM 5.64 42.152 0.375 7.88 9.69 12.36
11/3/2020 3:45:00 PM 5.71 42.278 0.375 7.9 9.17 12.36
11/3/2020 4:00:00 PM 5.76 42.368 0.375 7.91 9.03 12.36
11/3/2020 4:15:00 PM 5.83 42.494 0.376 7.91 9.51 12.31
11/3/2020 4:30:00 PM 5.84 42.512 0.376 7.91 9.29 12.3
11/3/2020 4:45:00 PM 5.83 42.494 0.376 7.9 9.13 12.18
11/3/2020 5:00:00 PM 5.91 42.638 0.376 7.92 8.97 12.21
11/3/2020 5:15:00 PM 5.93 42.674 0.376 7.91 9.02 12.11
11/3/2020 5:30:00 PM 5.91 42.638 0.377 7.92 9.14 12.17
11/3/2020 5:45:00 PM 5.94 42.692 0.377 7.91 9.15 12.05
11/3/2020 6:00:00 PM 5.94 42.692 0.377 7.91 9.03 12.02
11/3/2020 6:15:00 PM 5.95 42.71 0.377 7.9 11.84 11.99
11/3/2020 6:30:00 PM 5.93 42.674 0.377 7.91 9.03 11.97
11/3/2020 6:45:00 PM 5.91 42.638 0.378 7.91 9.17 11.9
11/3/2020 7:00:00 PM 5.88 42.584 0.378 7.9 9.39 11.98
11/3/2020 7:15:00 PM 5.84 42.512 0.378 7.89 9.02 11.95
11/3/2020 7:30:00 PM 5.79 42.422 0.378 7.89 9.14 11.89
11/3/2020 7:45:00 PM 5.74 42.332 0.378 7.88 9.25 11.88
11/3/2020 8:00:00 PM 5.69 42.242 0.379 7.88 9.28 11.88
11/3/2020 8:15:00 PM 5.63 42.134 0.379 7.89 9.24 11.86
11/3/2020 8:30:00 PM 5.58 42.044 0.379 7.88 9.12 11.9
11/3/2020 8:45:00 PM 5.53 41.954 0.379 7.87 9.41 11.88
11/3/2020 9:00:00 PM 5.47 41.846 0.379 7.88 9.32 11.98
11/3/2020 9:15:00 PM 5.41 41.738 0.38 7.88 9.1 12.01
11/3/2020 9:30:00 PM 5.36 41.648 0.38 7.87 9.04 11.99
11/3/2020 9:45:00 PM 5.29 41.522 0.38 7.87 9.02 12.04
11/3/2020 10:00:00 PM 5.22 41.396 0.38 7.87 9.11 12.03
11/3/2020 10:15:00 PM 5.17 41.306 0.38 7.87 9.17 12.03
11/3/2020 10:30:00 PM 5.1 41.18 0.38 7.86 9.26 12.08
11/3/2020 10:45:00 PM 5.05 41.09 0.381 7.86 9.11 12.11
11/3/2020 11:00:00 PM 4.97 40.946 0.381 7.87 9.19 12.08
11/3/2020 11:15:00 PM 4.9 40.82 0.381 7.86 9.23 12.1
11/3/2020 11:30:00 PM 4.85 40.73 0.381 7.86 9.38 12.18
11/3/2020 11:45:00 PM 4.78 40.604 0.382 7.86 9.33 12.19
11/4/2020 12:00:00 AM 4.72 40.496 0.382 7.86 9.15 12.13
11/4/2020 12:15:00 AM 4.67 40.406 0.382 7.86 9.13 12.21
11/4/2020 12:30:00 AM 4.6 40.28 0.382 7.86 9.13 12.2
11/4/2020 12:45:00 AM 4.56 40.208 0.383 7.85 9.1 12.19
11/4/2020 1:00:00 AM 4.49 40.082 0.383 7.85 9.15 12.18
11/4/2020 1:15:00 AM 4.46 40.028 0.383 7.86 9.13 12.26
11/4/2020 1:30:00 AM 4.41 39.938 0.383 7.86 9.03 12.19
11/4/2020 1:45:00 AM 4.36 39.848 0.384 7.86 9.25 12.25
11/4/2020 2:00:00 AM 4.33 39.794 0.384 7.86 9.14 12.28
11/4/2020 2:15:00 AM 4.28 39.704 0.384 7.86 9.1 12.25
11/4/2020 2:30:00 AM 4.24 39.632 0.385 7.86 9.11 12.21
11/4/2020 2:45:00 AM 4.21 39.578 0.385 7.85 9.18 12.3
11/4/2020 3:00:00 AM 4.17 39.506 0.385 7.86 9 12.24
11/4/2020 3:15:00 AM 4.14 39.452 0.385 7.85 9.06 12.36
11/4/2020 3:30:00 AM 4.1 39.38 0.386 7.85 9.26 12.36
11/4/2020 3:45:00 AM 4.07 39.326 0.386 7.86 9.01 12.35
11/4/2020 4:00:00 AM 4.03 39.254 0.386 7.85 8.99 12.39
11/4/2020 4:15:00 AM 3.98 39.164 0.386 7.85 9.02 12.38
11/4/2020 4:30:00 AM 3.95 39.11 0.387 7.85 9.04 12.4
11/4/2020 4:45:00 AM 3.9 39.02 0.387 7.84 9.16 12.4
11/4/2020 5:00:00 AM 3.86 38.948 0.387 7.83 8.99 12.41
11/4/2020 5:15:00 AM 3.82 38.876 0.387 7.82 9.12 12.4
11/4/2020 5:30:00 AM 3.78 38.804 0.388 7.82 9.02 12.47
11/4/2020 5:45:00 AM 3.73 38.714 0.388 7.83 9.04 12.36
11/4/2020 6:00:00 AM 3.71 38.678 0.388 7.82 8.97 12.53
11/4/2020 6:15:00 AM 3.66 38.588 0.388 7.82 9.12 12.5
11/4/2020 6:30:00 AM 3.62 38.516 0.389 7.82 9 12.54
11/4/2020 6:45:00 AM 3.59 38.462 0.389 7.8 8.93 12.56
11/4/2020 7:00:00 AM 3.54 38.372 0.389 7.82 9.03 12.6
11/4/2020 7:15:00 AM 3.51 38.318 0.389 7.83 9.25 12.59
11/4/2020 7:30:00 AM 3.46 38.228 0.39 7.82 9.16 12.56
11/4/2020 7:45:00 AM 3.42 38.156 0.39 7.82 9.04 12.57
11/4/2020 8:00:00 AM 3.38 38.084 0.39 7.82 9.12 12.54
11/4/2020 8:15:00 AM 3.35 38.03 0.39 7.83 9.23 12.51
11/4/2020 8:30:00 AM 3.33 37.994 0.391 7.83 9.1 12.62
11/4/2020 8:45:00 AM 3.31 37.958 0.391 7.82 9.11 12.62
11/4/2020 9:00:00 AM 3.3 37.94 0.391 7.82 9.02 12.65
11/4/2020 9:15:00 AM 3.3 37.94 0.391 7.83 9.05 12.73
11/4/2020 9:30:00 AM 3.32 37.976 0.391 7.84 9 12.73
11/4/2020 9:45:00 AM 3.36 38.048 0.391 7.84 9.01 12.76
11/4/2020 10:00:00 AM 3.47 38.246 0.391 7.84 9.02 12.73
11/4/2020 10:15:00 AM 3.66 38.588 0.391 7.84 8.94 12.7
11/4/2020 10:30:00 AM 3.73 38.714 0.391 7.85 9.02 12.78
11/4/2020 10:45:00 AM 3.77 38.786 0.391 7.85 9.24 12.78
11/4/2020 11:00:00 AM 3.9 39.02 0.391 7.85 9.11 12.78
11/4/2020 11:15:00 AM 3.97 39.146 0.392 7.86 9.87 12.8
11/4/2020 11:30:00 AM 3.97 39.146 0.392 7.86 9.13 12.77
11/4/2020 11:45:00 AM 4.07 39.326 0.392 7.86 9.27 12.79
11/4/2020 12:00:00 PM 4.14 39.452 0.392 7.86 9.37 12.82
11/4/2020 12:15:00 PM 4.19 39.542 0.392 7.86 9.16 12.83
11/4/2020 12:30:00 PM 4.28 39.704 0.392 7.88 9.25 12.61
11/4/2020 12:45:00 PM 4.42 39.956 0.392 7.88 9.14 12.64
11/4/2020 1:00:00 PM 4.54 40.172 0.392 7.87 9.12 12.67
11/4/2020 1:15:00 PM 4.68 40.424 0.392 7.88 9.19 12.68
11/4/2020 1:30:00 PM 4.84 40.712 0.392 7.88 9.15 12.56
11/4/2020 1:45:00 PM 5 41 0.392 7.88 9.55 12.61
11/4/2020 2:00:00 PM 5.15 41.27 0.392 7.88 9.25 12.64
11/4/2020 2:15:00 PM 5.45 41.81 0.392 7.87 9.17 12.61
11/4/2020 2:30:00 PM 5.58 42.044 0.392 7.9 9.23 12.6
11/4/2020 2:45:00 PM 5.77 42.386 0.393 7.9 9.24 12.53
11/4/2020 3:00:00 PM 5.91 42.638 0.392 7.91 9.2 12.5
11/4/2020 3:15:00 PM 5.98 42.764 0.392 7.9 9.07 12.45
11/4/2020 3:30:00 PM 6.08 42.944 0.392 7.9 9.19 12.44
11/4/2020 3:45:00 PM 6.1 42.98 0.393 7.91 9.14 12.36
11/4/2020 4:00:00 PM 6.22 43.196 0.393 7.91 9.24 12.37
11/4/2020 4:15:00 PM 6.28 43.304 0.393 7.91 9.13 12.32
11/4/2020 4:30:00 PM 6.29 43.322 0.393 7.91 9.17 12.28
11/4/2020 4:45:00 PM 6.24 43.232 0.393 7.88 9.25 12.25
11/4/2020 5:00:00 PM 6.21 43.178 0.393 7.92 9.23 12.2
11/4/2020 5:15:00 PM 6.19 43.142 0.393 7.89 9.18 12.13
11/4/2020 5:30:00 PM 6.2 43.16 0.393 7.91 9.87 12.07
11/4/2020 5:45:00 PM 6.23 43.214 0.394 7.9 9.19 12.05
11/4/2020 6:00:00 PM 6.26 43.268 0.393 7.91 9.25 11.98
11/4/2020 6:15:00 PM 6.3 43.34 0.394 7.89 28.3 11.96
11/4/2020 6:30:00 PM 6.32 43.376 0.394 7.89 9.22 11.93
11/4/2020 6:45:00 PM 6.31 43.358 0.394 7.89 9.35 11.92
11/4/2020 7:00:00 PM 6.3 43.34 0.394 7.88 9.39 11.87
11/4/2020 7:15:00 PM 6.28 43.304 0.394 7.88 9.27 11.81
11/4/2020 7:30:00 PM 6.27 43.286 0.395 7.88 9.18 11.82
11/4/2020 7:45:00 PM 6.25 43.25 0.395 7.88 9.41 11.76
11/4/2020 8:00:00 PM 6.22 43.196 0.395 7.88 9.28 11.76
11/4/2020 8:15:00 PM 6.21 43.178 0.395 7.88 9.24 11.75
11/4/2020 8:30:00 PM 6.2 43.16 0.395 7.88 9.27 11.74
11/4/2020 8:45:00 PM 6.18 43.124 0.395 7.87 9.54 11.74
11/4/2020 9:00:00 PM 6.14 43.052 0.395 7.84 9.33 11.76
11/4/2020 9:15:00 PM 6.12 43.016 0.396 7.87 9.26 11.79
11/4/2020 9:30:00 PM 6.07 42.926 0.396 7.88 9.33 11.78
11/4/2020 9:45:00 PM 6.02 42.836 0.396 7.87 10.83 11.8
11/4/2020 10:00:00 PM 5.98 42.764 0.396 7.87 9.5 11.82
11/4/2020 10:15:00 PM 5.93 42.674 0.396 7.86 9.48 11.82
11/4/2020 10:30:00 PM 5.87 42.566 0.396 7.86 9.52 11.85
11/4/2020 10:45:00 PM 5.81 42.458 0.396 7.87 9.36 11.89
11/4/2020 11:00:00 PM 5.76 42.368 0.397 7.87 9.52 11.88
11/4/2020 11:15:00 PM 5.69 42.242 0.397 7.86 9.33 11.87
11/4/2020 11:30:00 PM 5.63 42.134 0.397 7.86 9.42 11.92
11/4/2020 11:45:00 PM 5.55 41.99 0.397 7.86 9.44 11.92
11/5/2020 12:00:00 AM 5.48 41.864 0.397 7.85 9.73 11.91
11/5/2020 12:15:00 AM 5.42 41.756 0.397 7.84 9.45 11.96
11/5/2020 12:30:00 AM 5.34 41.612 0.398 7.86 9.35 11.95
11/5/2020 12:45:00 AM 5.28 41.504 0.398 7.85 9.42 11.93
11/5/2020 1:00:00 AM 5.21 41.378 0.398 7.86 9.31 12.05
11/5/2020 1:15:00 AM 5.15 41.27 0.398 7.85 9.3 12.07
11/5/2020 1:30:00 AM 5.07 41.126 0.398 7.86 9.33 12.08
11/5/2020 1:45:00 AM 5 41 0.398 7.85 9.49 12.03
11/5/2020 2:00:00 AM 4.93 40.874 0.399 7.85 9.39 12.12
11/5/2020 2:15:00 AM 4.88 40.784 0.399 7.85 9.33 12.13
11/5/2020 2:30:00 AM 4.81 40.658 0.399 7.85 9.32 12.08
11/5/2020 2:45:00 AM 4.76 40.568 0.399 7.82 9.32 12.15
11/5/2020 3:00:00 AM 4.71 40.478 0.399 7.85 9.44 12.17
11/5/2020 3:15:00 AM 4.66 40.388 0.4 7.84 9.33 12.14
11/5/2020 3:30:00 AM 4.61 40.298 0.4 7.85 9.34 12.18
11/5/2020 3:45:00 AM 4.57 40.226 0.4 7.85 9.48 12.23
11/5/2020 4:00:00 AM 4.53 40.154 0.4 7.82 9.45 12.2
11/5/2020 4:15:00 AM 4.5 40.1 0.4 7.85 9.72 12.21
11/5/2020 4:30:00 AM 4.46 40.028 0.401 7.82 9.88 12.26
11/5/2020 4:45:00 AM 4.44 39.992 0.401 7.85 9.48 12.29
11/5/2020 5:00:00 AM 4.4 39.92 0.401 7.84 9.65 12.28
11/5/2020 5:15:00 AM 4.36 39.848 0.401 7.85 9.63 12.27
11/5/2020 5:30:00 AM 4.35 39.83 0.401 7.85 9.68 12.33
11/5/2020 5:45:00 AM 4.31 39.758 0.401 7.85 9.57 12.32
11/5/2020 6:00:00 AM 4.26 39.668 0.402 7.85 9.65 12.31
11/5/2020 6:15:00 AM 4.23 39.614 0.402 7.85 10.91 12.26
11/5/2020 6:30:00 AM 4.2 39.56 0.402 7.85 10.06 12.31
11/5/2020 6:45:00 AM 4.16 39.488 0.402 7.85 9.76 12.35
11/5/2020 7:00:00 AM 4.13 39.434 0.402 7.85 9.56 12.39
11/5/2020 7:15:00 AM 4.1 39.38 0.403 7.85 9.72 12.38
11/5/2020 7:30:00 AM 4.07 39.326 0.403 7.85 9.47 12.39
11/5/2020 7:45:00 AM 4.06 39.308 0.403 7.84 9.51 12.36
11/5/2020 8:00:00 AM 4.04 39.272 0.403 7.84 9.55 12.36
11/5/2020 8:15:00 AM 4.03 39.254 0.403 7.83 9.48 12.4
11/5/2020 8:30:00 AM 4.03 39.254 0.403 7.84 9.53 12.39
11/5/2020 8:45:00 AM 4.04 39.272 0.404 7.82 9.47 12.43
11/5/2020 9:00:00 AM 4.08 39.344 0.404 7.85 9.57 12.43
11/5/2020 9:15:00 AM 4.12 39.416 0.404 7.84 9.52 12.43
11/5/2020 9:30:00 AM 4.17 39.506 0.404 7.86 9.5 12.53
11/5/2020 9:45:00 AM 4.25 39.65 0.404 7.85 9.54 12.54
11/5/2020 10:00:00 AM 4.29 39.722 0.404 7.86 9.53 12.55
11/5/2020 10:15:00 AM 4.39 39.902 0.404 7.87 9.56 12.5
11/5/2020 10:30:00 AM 4.45 40.01 0.404 7.84 9.59 12.42
11/5/2020 10:45:00 AM 4.53 40.154 0.404 7.87 9.76 12.6
11/5/2020 11:00:00 AM 4.72 40.496 0.404 7.87 9.56 12.61
11/5/2020 11:15:00 AM 4.8 40.64 0.404 7.88 9.59 12.6
11/5/2020 11:30:00 AM 4.89 40.802 0.404 7.87 9.58 12.63
11/5/2020 11:45:00 AM 4.95 40.91 0.404 7.88 9.68 12.54
11/5/2020 12:00:00 PM 5.05 41.09 0.405 7.89 9.7 12.56
11/5/2020 12:15:00 PM 5.15 41.27 0.405 7.87 9.64 12.55
11/5/2020 12:30:00 PM 5.26 41.468 0.405 7.9 9.66 12.56
11/5/2020 12:45:00 PM 5.38 41.684 0.405 7.9 9.73 12.56
11/5/2020 1:00:00 PM 5.57 42.026 0.405 7.9 9.66 12.56
11/5/2020 1:15:00 PM 5.73 42.314 0.405 7.89 9.73 12.53
11/5/2020 1:30:00 PM 5.88 42.584 0.405 7.91 9.72 12.47
11/5/2020 1:45:00 PM 6.04 42.872 0.405 7.9 9.81 12.48
11/5/2020 2:00:00 PM 6.23 43.214 0.405 7.92 9.81 12.4
11/5/2020 2:15:00 PM 6.48 43.664 0.405 7.9 9.81 12.32
11/5/2020 2:30:00 PM 6.57 43.826 0.405 7.92 9.82 12.37
11/5/2020 2:45:00 PM 6.69 44.042 0.405 7.93 11.8 12.3
11/5/2020 3:00:00 PM 6.8 44.24 0.405 7.95 9.81 12.34
11/5/2020 3:15:00 PM 6.81 44.258 0.405 7.94 9.75 12.32
11/5/2020 3:30:00 PM 6.78 44.204 0.405 7.95 10.14 12.24
11/5/2020 3:45:00 PM 6.9 44.42 0.405 7.94 9.93 12.21
11/5/2020 4:00:00 PM 7.01 44.618 0.405 7.96 9.82 12.2
11/5/2020 4:15:00 PM 7.07 44.726 0.405 7.94 9.92 12.08
11/5/2020 4:30:00 PM 7.09 44.762 0.405 7.96 9.94 12.16
11/5/2020 4:45:00 PM 7.08 44.744 0.405 7.95 9.89 12.08
11/5/2020 5:00:00 PM 6.98 44.564 0.406 7.96 9.99 12.05
11/5/2020 5:15:00 PM 6.93 44.474 0.406 7.93 9.98 11.97
11/5/2020 5:30:00 PM 6.89 44.402 0.406 7.95 9.91 11.96
11/5/2020 5:45:00 PM 6.85 44.33 0.406 7.94 9.97 11.9
11/5/2020 6:00:00 PM 6.82 44.276 0.406 7.94 9.96 11.88
11/5/2020 6:15:00 PM 6.77 44.186 0.406 7.9 10.01 11.88
11/5/2020 6:30:00 PM 6.76 44.168 0.406 7.92 10.14 11.82
11/5/2020 6:45:00 PM 6.72 44.096 0.407 7.92 9.94 11.77
11/5/2020 7:00:00 PM 6.69 44.042 0.407 7.91 9.94 11.74
11/5/2020 7:15:00 PM 6.66 43.988 0.407 7.88 9.99 11.75
11/5/2020 7:30:00 PM 6.64 43.952 0.407 7.9 10.06 11.73
11/5/2020 7:45:00 PM 6.62 43.916 0.407 7.88 11.16 11.7
11/5/2020 8:00:00 PM 6.61 43.898 0.407 7.87 10.01 11.64
11/5/2020 8:15:00 PM 6.61 43.898 0.408 7.88 9.98 11.62
11/5/2020 8:30:00 PM 6.61 43.898 0.408 7.85 10.14 11.65
11/5/2020 8:45:00 PM 6.61 43.898 0.408 7.87 10.06 11.68
11/5/2020 9:00:00 PM 6.61 43.898 0.408 7.87 10.04 11.65
11/5/2020 9:15:00 PM 6.62 43.916 0.408 7.87 10.1 11.67
11/5/2020 9:30:00 PM 6.62 43.916 0.408 7.87 10.49 11.6
11/5/2020 9:45:00 PM 6.62 43.916 0.408 7.87 10.1 11.59
11/5/2020 10:00:00 PM 6.61 43.898 0.408 7.87 10.04 11.6
11/5/2020 10:15:00 PM 6.6 43.88 0.408 7.86 10.13 11.65
11/5/2020 10:30:00 PM 6.59 43.862 0.408 7.86 10.34 11.61
11/5/2020 10:45:00 PM 6.56 43.808 0.408 7.86 10.13 11.57
11/5/2020 11:00:00 PM 6.54 43.772 0.408 7.87 10.05 11.62
11/5/2020 11:15:00 PM 6.52 43.736 0.408 7.87 10.13 11.62
11/5/2020 11:30:00 PM 6.51 43.718 0.409 7.86 10.51 11.62
11/5/2020 11:45:00 PM 6.49 43.682 0.409 7.87 10.14 11.63
11/6/2020 12:00:00 AM 6.48 43.664 0.409 7.87 10.17 11.64
11/6/2020 12:15:00 AM 6.44 43.592 0.409 7.86 9.98 11.66
11/6/2020 12:30:00 AM 6.41 43.538 0.409 7.86 10.1 11.66
11/6/2020 12:45:00 AM 6.37 43.466 0.409 7.85 10.05 11.64
11/6/2020 1:00:00 AM 6.34 43.412 0.409 7.86 10.05 11.66
11/6/2020 1:15:00 AM 6.29 43.322 0.409 7.86 9.99 11.65
11/6/2020 1:30:00 AM 6.23 43.214 0.409 7.86 10.11 11.7
11/6/2020 1:45:00 AM 6.21 43.178 0.409 7.86 10.06 11.69
11/6/2020 2:00:00 AM 6.17 43.106 0.409 7.86 10.13 11.73
11/6/2020 2:15:00 AM 6.15 43.07 0.41 7.86 10.12 11.69
11/6/2020 2:30:00 AM 6.11 42.998 0.409 7.86 10.1 11.76
11/6/2020 2:45:00 AM 6.07 42.926 0.409 7.86 10.08 11.77
11/6/2020 3:00:00 AM 6.03 42.854 0.41 7.83 10.02 11.8
11/6/2020 3:15:00 AM 6 42.8 0.41 7.85 10.04 11.75
11/6/2020 3:30:00 AM 5.96 42.728 0.41 7.85 10.04 11.77
11/6/2020 3:45:00 AM 5.92 42.656 0.41 7.85 10.17 11.79
11/6/2020 4:00:00 AM 5.86 42.548 0.41 7.85 10.11 11.83
11/6/2020 4:15:00 AM 5.81 42.458 0.41 7.83 10.03 11.8
11/6/2020 4:30:00 AM 5.74 42.332 0.41 7.85 10.15 11.79
11/6/2020 4:45:00 AM 5.7 42.26 0.41 7.85 10.05 11.87
11/6/2020 5:00:00 AM 5.65 42.17 0.411 7.84 10.03 11.84
11/6/2020 5:15:00 AM 5.6 42.08 0.411 7.84 10.08 11.88
11/6/2020 5:30:00 AM 5.56 42.008 0.411 7.85 10.11 11.88
11/6/2020 5:45:00 AM 5.5 41.9 0.411 7.84 10.02 11.89
11/6/2020 6:00:00 AM 5.45 41.81 0.411 7.84 10.08 11.88
11/6/2020 6:15:00 AM 5.41 41.738 0.411 7.85 10.03 11.87
11/6/2020 6:30:00 AM 5.37 41.666 0.412 7.85 10.21 11.92
11/6/2020 6:45:00 AM 5.32 41.576 0.412 7.85 10.09 11.92
11/6/2020 7:00:00 AM 5.27 41.486 0.412 7.83 10.06 11.97
11/6/2020 7:15:00 AM 5.22 41.396 0.412 7.85 10.13 11.95
11/6/2020 7:30:00 AM 5.18 41.324 0.412 7.84 10.07 11.89
11/6/2020 7:45:00 AM 5.14 41.252 0.412 7.85 10.14 11.94
11/6/2020 8:00:00 AM 5.1 41.18 0.413 7.84 10.12 11.92
11/6/2020 8:15:00 AM 5.06 41.108 0.413 7.85 22.51 12
11/6/2020 8:30:00 AM 5.01 41.018 0.413 7.85 10.29 11.94
11/6/2020 8:45:00 AM 4.99 40.982 0.413 7.84 10.42 11.96
11/6/2020 9:00:00 AM 4.99 40.982 0.413 7.83 10.3 12.03
11/6/2020 9:15:00 AM 4.97 40.946 0.413 7.85 10.4 12.07
11/6/2020 9:30:00 AM 4.99 40.982 0.413 7.84 10.43 12.08
11/6/2020 9:45:00 AM 5.05 41.09 0.413 7.86 10.29 12.11
11/6/2020 10:00:00 AM 5.17 41.306 0.413 7.85 10.41 12.15
11/6/2020 10:15:00 AM 5.33 41.594 0.413 7.85 10.26 12.21
11/6/2020 10:30:00 AM 5.49 41.882 0.413 7.87 10.34 12.24
11/6/2020 10:45:00 AM 5.59 42.062 0.413 7.86 11.21 12.25
11/6/2020 11:00:00 AM 5.7 42.26 0.413 7.88 10.3 12.28
11/6/2020 11:15:00 AM 5.73 42.314 0.413 7.89 10.58 12.29
11/6/2020 11:30:00 AM 5.79 42.422 0.413 7.89 10.39 12.27
11/6/2020 11:45:00 AM 5.87 42.566 0.413 7.88 10.51 12.26
11/6/2020 12:00:00 PM 6.03 42.854 0.413 7.89 10.42 12.18
11/6/2020 12:15:00 PM 6.09 42.962 0.413 7.9 10.53 12.23
11/6/2020 12:30:00 PM 6.22 43.196 0.413 7.9 10.46 12.18
11/6/2020 12:45:00 PM 6.31 43.358 0.413 7.9 10.5 12.17
11/6/2020 1:00:00 PM 6.39 43.502 0.413 7.92 10.54 12.16
11/6/2020 1:15:00 PM 6.57 43.826 0.413 7.92 10.49 12.16
11/6/2020 1:30:00 PM 6.69 44.042 0.413 7.92 10.56 12.1
11/6/2020 1:45:00 PM 6.89 44.402 0.413 7.93 10.51 12.1
11/6/2020 2:00:00 PM 7.09 44.762 0.413 7.93 10.48 12.01
11/6/2020 2:15:00 PM 7.33 45.194 0.413 7.93 10.44 12.01
11/6/2020 2:30:00 PM 7.57 45.626 0.413 7.93 10.46 12.05
11/6/2020 2:45:00 PM 7.61 45.698 0.413 7.95 10.55 12.05
11/6/2020 3:00:00 PM 7.7 45.86 0.413 7.95 10.44 12.1
11/6/2020 3:15:00 PM 7.8 46.04 0.413 7.96 10.57 12.06
11/6/2020 3:30:00 PM 7.82 46.076 0.413 7.96 10.61 12.02
11/6/2020 3:45:00 PM 7.92 46.256 0.414 7.94 10.41 11.97
11/6/2020 4:00:00 PM 7.94 46.292 0.414 7.97 10.5 11.98
11/6/2020 4:15:00 PM 7.95 46.31 0.414 7.95 10.45 11.93
11/6/2020 4:30:00 PM 7.96 46.328 0.414 7.97 10.54 11.91
11/6/2020 4:45:00 PM 7.9 46.22 0.414 7.97 10.55 11.8
11/6/2020 5:00:00 PM 7.84 46.112 0.414 7.94 10.7 11.81
11/6/2020 5:15:00 PM 7.77 45.986 0.414 7.96 10.57 11.77
11/6/2020 5:30:00 PM 7.67 45.806 0.415 7.94 10.55 11.7
11/6/2020 5:45:00 PM 7.65 45.77 0.415 7.96 10.53 11.63
11/6/2020 6:00:00 PM 7.66 45.788 0.415 7.93 10.54 11.55
11/6/2020 6:15:00 PM 7.68 45.824 0.415 7.93 10.55 11.5
11/6/2020 6:30:00 PM 7.68 45.824 0.415 7.92 10.56 11.48
11/6/2020 6:45:00 PM 7.67 45.806 0.415 7.89 10.53 11.4
11/6/2020 7:00:00 PM 7.65 45.77 0.416 7.92 10.56 11.41
11/6/2020 7:15:00 PM 7.6 45.68 0.416 7.89 10.84 11.36
11/6/2020 7:30:00 PM 7.59 45.662 0.416 7.91 10.7 11.37
11/6/2020 7:45:00 PM 7.54 45.572 0.416 7.88 10.6 11.32
11/6/2020 8:00:00 PM 7.53 45.554 0.417 7.89 10.73 11.32
11/6/2020 8:15:00 PM 7.49 45.482 0.417 7.86 10.66 11.29
11/6/2020 8:30:00 PM 7.47 45.446 0.417 7.89 10.59 11.29
11/6/2020 8:45:00 PM 7.44 45.392 0.417 7.89 10.65 11.27
11/6/2020 9:00:00 PM 7.43 45.374 0.417 7.86 10.72 11.32
11/6/2020 9:15:00 PM 7.42 45.356 0.417 7.88 10.75 11.26
11/6/2020 9:30:00 PM 7.41 45.338 0.418 7.86 10.79 11.26
11/6/2020 9:45:00 PM 7.39 45.302 0.418 7.88 12.35 11.27
11/6/2020 10:00:00 PM 7.38 45.284 0.418 7.87 11.13 11.31
11/6/2020 10:15:00 PM 7.35 45.23 0.418 7.88 10.83 11.25
11/6/2020 10:30:00 PM 7.33 45.194 0.418 7.86 10.86 11.3
11/6/2020 10:45:00 PM 7.3 45.14 0.418 7.88 10.76 11.28
11/6/2020 11:00:00 PM 7.26 45.068 0.418 7.87 10.87 11.28
11/6/2020 11:15:00 PM 7.23 45.014 0.419 7.87 10.87 11.28
11/6/2020 11:30:00 PM 7.18 44.924 0.419 7.88 10.85 11.3
11/6/2020 11:45:00 PM 7.13 44.834 0.419 7.87 10.86 11.32
11/7/2020 12:00:00 AM 7.08 44.744 0.419 7.87 10.9 11.32
11/7/2020 12:15:00 AM 7.03 44.654 0.419 7.88 10.97 11.36
11/7/2020 12:30:00 AM 6.96 44.528 0.419 7.87 11.1 11.39
11/7/2020 12:45:00 AM 6.9 44.42 0.419 7.87 10.81 11.41
11/7/2020 1:00:00 AM 6.85 44.33 0.42 7.87 10.92 11.39
11/7/2020 1:15:00 AM 6.77 44.186 0.42 7.88 10.9 11.44
11/7/2020 1:30:00 AM 6.71 44.078 0.42 7.86 10.87 11.45
11/7/2020 1:45:00 AM 6.63 43.934 0.42 7.87 10.88 11.44
11/7/2020 2:00:00 AM 6.55 43.79 0.42 7.87 10.95 11.5
11/7/2020 2:15:00 AM 6.49 43.682 0.42 7.86 10.91 11.51
11/7/2020 2:30:00 AM 6.42 43.556 0.42 7.87 10.87 11.53
11/7/2020 2:45:00 AM 6.33 43.394 0.421 7.85 10.91 11.55
11/7/2020 3:00:00 AM 6.25 43.25 0.421 7.86 10.85 11.57
11/7/2020 3:15:00 AM 6.18 43.124 0.421 7.84 11.02 11.61
11/7/2020 3:30:00 AM 6.11 42.998 0.421 7.86 10.84 11.62
11/7/2020 3:45:00 AM 6.03 42.854 0.421 7.87 10.88 11.69
11/7/2020 4:00:00 AM 5.96 42.728 0.421 7.86 10.86 11.66
11/7/2020 4:15:00 AM 5.9 42.62 0.422 7.85 10.86 11.66
These are provisional data and have not been subject to a quality assurance process, but rather are the raw data reported by the instrument.

Data Availability & Limitations

Uncertainty and potential for error can be associated with environmental monitoring data. Provisional data have not been subject to a quality assurance process, but rather are the raw data reported by the instrument. Data users are cautioned to consider carefully the provisional nature of the information before using it for decisions that concern personal or public safety or the conduct of business that involves substantial monetary or operational consequences.

Approved data are currently available by request by emailing: srbc@srbc.net. Approved data have been subject to a quality assurance process to correct for equipment or fouling drift. Data recorded during equipment malfunctions have been removed.

View Historical Stations that have been been discontinued.